<?xml version="1.0" encoding="UTF-8" standalone="no" ?>
<gpx xmlns="http://www.topografix.com/GPX/1/1" xmlns:xsi="http://www.w3.org/2001/XMLSchema-instance" xsi:schemaLocation="http://www.topografix.com/GPX/1/1 http://www.topografix.com/GPX/1/1/gpx.xsd" version="1.1" creator="VisuGPX - https://www.visugpx.com">
  <metadata>
    <name>Pas de la Croix au départ de Combovin</name>
    <desc><![CDATA[Boucle au départ de Combovin par le Pas de Boussière, le pas du Buis le Pas de la Croix et la chapelle Ste. Marguerite.]]></desc>
  </metadata>
  <trk>
    <name><![CDATA[2023-01-12 16:10:14]]></name>
    <trkseg>
      <trkpt lat="44.87427" lon="5.07712">
        <ele>369.76</ele>
        <time>2023-01-12T08:36:47Z</time>
      </trkpt>
      <trkpt lat="44.87418" lon="5.07716">
        <ele>369.76</ele>
        <time>2023-01-12T08:37:02Z</time>
      </trkpt>
      <trkpt lat="44.87412" lon="5.07717">
        <ele>369.28</ele>
        <time>2023-01-12T08:37:09Z</time>
      </trkpt>
      <trkpt lat="44.87402" lon="5.07717">
        <ele>369.28</ele>
        <time>2023-01-12T08:37:18Z</time>
      </trkpt>
      <trkpt lat="44.87384" lon="5.07735">
        <ele>367.36</ele>
        <time>2023-01-12T08:37:37Z</time>
      </trkpt>
      <trkpt lat="44.8738" lon="5.0776">
        <ele>367.36</ele>
        <time>2023-01-12T08:37:52Z</time>
      </trkpt>
      <trkpt lat="44.87379" lon="5.07768">
        <ele>367.36</ele>
        <time>2023-01-12T08:37:57Z</time>
      </trkpt>
      <trkpt lat="44.87378" lon="5.07775">
        <ele>367.36</ele>
        <time>2023-01-12T08:38:02Z</time>
      </trkpt>
      <trkpt lat="44.87379" lon="5.07777">
        <ele>367.36</ele>
        <time>2023-01-12T08:38:04Z</time>
      </trkpt>
      <trkpt lat="44.87381" lon="5.0781">
        <ele>368.8</ele>
        <time>2023-01-12T08:38:23Z</time>
      </trkpt>
      <trkpt lat="44.87381" lon="5.07811">
        <ele>368.8</ele>
        <time>2023-01-12T08:38:24Z</time>
      </trkpt>
      <trkpt lat="44.87376" lon="5.07812">
        <ele>368.8</ele>
        <time>2023-01-12T08:38:29Z</time>
      </trkpt>
      <trkpt lat="44.87359" lon="5.07817">
        <ele>368.8</ele>
        <time>2023-01-12T08:38:46Z</time>
      </trkpt>
      <trkpt lat="44.87355" lon="5.07816">
        <ele>368.8</ele>
        <time>2023-01-12T08:38:57Z</time>
      </trkpt>
      <trkpt lat="44.87345" lon="5.07817">
        <ele>369.76</ele>
        <time>2023-01-12T08:39:07Z</time>
      </trkpt>
      <trkpt lat="44.87335" lon="5.07817">
        <ele>371.21</ele>
        <time>2023-01-12T08:39:23Z</time>
      </trkpt>
      <trkpt lat="44.87333" lon="5.07818">
        <ele>371.21</ele>
        <time>2023-01-12T08:39:25Z</time>
      </trkpt>
      <trkpt lat="44.87323" lon="5.07829">
        <ele>373.13</ele>
        <time>2023-01-12T08:39:40Z</time>
      </trkpt>
      <trkpt lat="44.87315" lon="5.07842">
        <ele>375.05</ele>
        <time>2023-01-12T08:39:54Z</time>
      </trkpt>
      <trkpt lat="44.87303" lon="5.07857">
        <ele>376.97</ele>
        <time>2023-01-12T08:40:09Z</time>
      </trkpt>
      <trkpt lat="44.87288" lon="5.07871">
        <ele>378.42</ele>
        <time>2023-01-12T08:40:25Z</time>
      </trkpt>
      <trkpt lat="44.87278" lon="5.0788">
        <ele>380.34</ele>
        <time>2023-01-12T08:40:38Z</time>
      </trkpt>
      <trkpt lat="44.87275" lon="5.07881">
        <ele>381.3</ele>
        <time>2023-01-12T08:40:41Z</time>
      </trkpt>
      <trkpt lat="44.87271" lon="5.07881">
        <ele>381.78</ele>
        <time>2023-01-12T08:40:46Z</time>
      </trkpt>
      <trkpt lat="44.87269" lon="5.07882">
        <ele>382.26</ele>
        <time>2023-01-12T08:40:48Z</time>
      </trkpt>
      <trkpt lat="44.87255" lon="5.07887">
        <ele>384.18</ele>
        <time>2023-01-12T08:41:02Z</time>
      </trkpt>
      <trkpt lat="44.87247" lon="5.07893">
        <ele>385.15</ele>
        <time>2023-01-12T08:41:10Z</time>
      </trkpt>
      <trkpt lat="44.87231" lon="5.07902">
        <ele>386.11</ele>
        <time>2023-01-12T08:41:25Z</time>
      </trkpt>
      <trkpt lat="44.87222" lon="5.07917">
        <ele>387.55</ele>
        <time>2023-01-12T08:41:41Z</time>
      </trkpt>
      <trkpt lat="44.87214" lon="5.07933">
        <ele>389.47</ele>
        <time>2023-01-12T08:41:55Z</time>
      </trkpt>
      <trkpt lat="44.87207" lon="5.07947">
        <ele>390.43</ele>
        <time>2023-01-12T08:42:08Z</time>
      </trkpt>
      <trkpt lat="44.87202" lon="5.07966">
        <ele>392.84</ele>
        <time>2023-01-12T08:42:23Z</time>
      </trkpt>
      <trkpt lat="44.87201" lon="5.07969">
        <ele>393.32</ele>
        <time>2023-01-12T08:42:25Z</time>
      </trkpt>
      <trkpt lat="44.87193" lon="5.07985">
        <ele>393.8</ele>
        <time>2023-01-12T08:42:39Z</time>
      </trkpt>
      <trkpt lat="44.87184" lon="5.08">
        <ele>396.2</ele>
        <time>2023-01-12T08:42:53Z</time>
      </trkpt>
      <trkpt lat="44.87174" lon="5.08015">
        <ele>397.64</ele>
        <time>2023-01-12T08:43:07Z</time>
      </trkpt>
      <trkpt lat="44.87174" lon="5.08016">
        <ele>397.64</ele>
        <time>2023-01-12T08:43:08Z</time>
      </trkpt>
      <trkpt lat="44.87165" lon="5.08029">
        <ele>399.57</ele>
        <time>2023-01-12T08:43:23Z</time>
      </trkpt>
      <trkpt lat="44.87155" lon="5.08041">
        <ele>401.97</ele>
        <time>2023-01-12T08:43:38Z</time>
      </trkpt>
      <trkpt lat="44.87147" lon="5.08051">
        <ele>405.33</ele>
        <time>2023-01-12T08:43:52Z</time>
      </trkpt>
      <trkpt lat="44.87141" lon="5.08063">
        <ele>407.74</ele>
        <time>2023-01-12T08:44:06Z</time>
      </trkpt>
      <trkpt lat="44.87141" lon="5.08074">
        <ele>409.18</ele>
        <time>2023-01-12T08:44:22Z</time>
      </trkpt>
      <trkpt lat="44.87143" lon="5.08085">
        <ele>411.58</ele>
        <time>2023-01-12T08:44:39Z</time>
      </trkpt>
      <trkpt lat="44.87148" lon="5.08098">
        <ele>413.98</ele>
        <time>2023-01-12T08:44:53Z</time>
      </trkpt>
      <trkpt lat="44.87149" lon="5.08112">
        <ele>417.35</ele>
        <time>2023-01-12T08:45:09Z</time>
      </trkpt>
      <trkpt lat="44.8715" lon="5.08129">
        <ele>420.23</ele>
        <time>2023-01-12T08:45:29Z</time>
      </trkpt>
      <trkpt lat="44.87151" lon="5.08139">
        <ele>422.16</ele>
        <time>2023-01-12T08:45:43Z</time>
      </trkpt>
      <trkpt lat="44.87151" lon="5.08152">
        <ele>424.56</ele>
        <time>2023-01-12T08:45:57Z</time>
      </trkpt>
      <trkpt lat="44.87149" lon="5.08164">
        <ele>427.44</ele>
        <time>2023-01-12T08:46:12Z</time>
      </trkpt>
      <trkpt lat="44.87147" lon="5.08178">
        <ele>429.85</ele>
        <time>2023-01-12T08:46:27Z</time>
      </trkpt>
      <trkpt lat="44.87142" lon="5.08175">
        <ele>432.73</ele>
        <time>2023-01-12T08:46:41Z</time>
      </trkpt>
      <trkpt lat="44.87136" lon="5.08166">
        <ele>435.13</ele>
        <time>2023-01-12T08:46:57Z</time>
      </trkpt>
      <trkpt lat="44.87129" lon="5.08156">
        <ele>438.5</ele>
        <time>2023-01-12T08:47:11Z</time>
      </trkpt>
      <trkpt lat="44.87121" lon="5.08147">
        <ele>440.42</ele>
        <time>2023-01-12T08:47:27Z</time>
      </trkpt>
      <trkpt lat="44.87113" lon="5.0814">
        <ele>443.79</ele>
        <time>2023-01-12T08:47:43Z</time>
      </trkpt>
      <trkpt lat="44.87103" lon="5.08131">
        <ele>446.67</ele>
        <time>2023-01-12T08:48:02Z</time>
      </trkpt>
      <trkpt lat="44.87091" lon="5.08128">
        <ele>449.07</ele>
        <time>2023-01-12T08:48:19Z</time>
      </trkpt>
      <trkpt lat="44.87083" lon="5.08135">
        <ele>451.96</ele>
        <time>2023-01-12T08:48:36Z</time>
      </trkpt>
      <trkpt lat="44.87075" lon="5.08143">
        <ele>454.84</ele>
        <time>2023-01-12T08:48:53Z</time>
      </trkpt>
      <trkpt lat="44.87067" lon="5.08151">
        <ele>457.72</ele>
        <time>2023-01-12T08:49:10Z</time>
      </trkpt>
      <trkpt lat="44.8706" lon="5.08159">
        <ele>460.13</ele>
        <time>2023-01-12T08:49:25Z</time>
      </trkpt>
      <trkpt lat="44.87052" lon="5.0817">
        <ele>462.53</ele>
        <time>2023-01-12T08:49:41Z</time>
      </trkpt>
      <trkpt lat="44.87043" lon="5.08182">
        <ele>464.45</ele>
        <time>2023-01-12T08:49:58Z</time>
      </trkpt>
      <trkpt lat="44.87034" lon="5.08193">
        <ele>466.86</ele>
        <time>2023-01-12T08:50:14Z</time>
      </trkpt>
      <trkpt lat="44.87025" lon="5.08198">
        <ele>468.78</ele>
        <time>2023-01-12T08:50:30Z</time>
      </trkpt>
      <trkpt lat="44.87016" lon="5.08203">
        <ele>471.18</ele>
        <time>2023-01-12T08:50:47Z</time>
      </trkpt>
      <trkpt lat="44.87009" lon="5.0821">
        <ele>473.59</ele>
        <time>2023-01-12T08:51:02Z</time>
      </trkpt>
      <trkpt lat="44.87003" lon="5.08218">
        <ele>476.95</ele>
        <time>2023-01-12T08:51:20Z</time>
      </trkpt>
      <trkpt lat="44.86999" lon="5.0823">
        <ele>479.35</ele>
        <time>2023-01-12T08:51:35Z</time>
      </trkpt>
      <trkpt lat="44.86995" lon="5.08243">
        <ele>482.24</ele>
        <time>2023-01-12T08:51:50Z</time>
      </trkpt>
      <trkpt lat="44.86993" lon="5.08255">
        <ele>485.12</ele>
        <time>2023-01-12T08:52:06Z</time>
      </trkpt>
      <trkpt lat="44.86985" lon="5.08268">
        <ele>487.05</ele>
        <time>2023-01-12T08:52:21Z</time>
      </trkpt>
      <trkpt lat="44.86975" lon="5.08277">
        <ele>489.45</ele>
        <time>2023-01-12T08:52:37Z</time>
      </trkpt>
      <trkpt lat="44.86963" lon="5.08283">
        <ele>491.85</ele>
        <time>2023-01-12T08:52:53Z</time>
      </trkpt>
      <trkpt lat="44.86954" lon="5.08288">
        <ele>493.77</ele>
        <time>2023-01-12T08:53:06Z</time>
      </trkpt>
      <trkpt lat="44.86943" lon="5.08295">
        <ele>496.18</ele>
        <time>2023-01-12T08:53:25Z</time>
      </trkpt>
      <trkpt lat="44.86932" lon="5.083">
        <ele>498.1</ele>
        <time>2023-01-12T08:53:41Z</time>
      </trkpt>
      <trkpt lat="44.86923" lon="5.08305">
        <ele>500.5</ele>
        <time>2023-01-12T08:53:57Z</time>
      </trkpt>
      <trkpt lat="44.86914" lon="5.08308">
        <ele>502.91</ele>
        <time>2023-01-12T08:54:14Z</time>
      </trkpt>
      <trkpt lat="44.86905" lon="5.0832">
        <ele>505.31</ele>
        <time>2023-01-12T08:54:30Z</time>
      </trkpt>
      <trkpt lat="44.86896" lon="5.08327">
        <ele>508.67</ele>
        <time>2023-01-12T08:54:49Z</time>
      </trkpt>
      <trkpt lat="44.86887" lon="5.08334">
        <ele>511.08</ele>
        <time>2023-01-12T08:55:06Z</time>
      </trkpt>
      <trkpt lat="44.8688" lon="5.08342">
        <ele>513.96</ele>
        <time>2023-01-12T08:55:25Z</time>
      </trkpt>
      <trkpt lat="44.86872" lon="5.08351">
        <ele>516.85</ele>
        <time>2023-01-12T08:55:41Z</time>
      </trkpt>
      <trkpt lat="44.86865" lon="5.08359">
        <ele>519.73</ele>
        <time>2023-01-12T08:55:58Z</time>
      </trkpt>
      <trkpt lat="44.86857" lon="5.08367">
        <ele>522.13</ele>
        <time>2023-01-12T08:56:13Z</time>
      </trkpt>
      <trkpt lat="44.86854" lon="5.0837">
        <ele>523.58</ele>
        <time>2023-01-12T08:56:27Z</time>
      </trkpt>
      <trkpt lat="44.86845" lon="5.0838">
        <ele>525.98</ele>
        <time>2023-01-12T08:56:42Z</time>
      </trkpt>
      <trkpt lat="44.86837" lon="5.08388">
        <ele>528.86</ele>
        <time>2023-01-12T08:56:57Z</time>
      </trkpt>
      <trkpt lat="44.86827" lon="5.08395">
        <ele>531.75</ele>
        <time>2023-01-12T08:57:15Z</time>
      </trkpt>
      <trkpt lat="44.86816" lon="5.08397">
        <ele>534.15</ele>
        <time>2023-01-12T08:57:32Z</time>
      </trkpt>
      <trkpt lat="44.86804" lon="5.08402">
        <ele>536.07</ele>
        <time>2023-01-12T08:57:49Z</time>
      </trkpt>
      <trkpt lat="44.86793" lon="5.08405">
        <ele>537.99</ele>
        <time>2023-01-12T08:58:05Z</time>
      </trkpt>
      <trkpt lat="44.86783" lon="5.08412">
        <ele>539.92</ele>
        <time>2023-01-12T08:58:20Z</time>
      </trkpt>
      <trkpt lat="44.86773" lon="5.08423">
        <ele>542.8</ele>
        <time>2023-01-12T08:58:39Z</time>
      </trkpt>
      <trkpt lat="44.86767" lon="5.08432">
        <ele>544.72</ele>
        <time>2023-01-12T08:58:53Z</time>
      </trkpt>
      <trkpt lat="44.86759" lon="5.08438">
        <ele>547.13</ele>
        <time>2023-01-12T08:59:11Z</time>
      </trkpt>
      <trkpt lat="44.86753" lon="5.08448">
        <ele>549.53</ele>
        <time>2023-01-12T08:59:26Z</time>
      </trkpt>
      <trkpt lat="44.8675" lon="5.08454">
        <ele>552.41</ele>
        <time>2023-01-12T08:59:39Z</time>
      </trkpt>
      <trkpt lat="44.86743" lon="5.08462">
        <ele>555.3</ele>
        <time>2023-01-12T08:59:57Z</time>
      </trkpt>
      <trkpt lat="44.86736" lon="5.0847">
        <ele>558.66</ele>
        <time>2023-01-12T09:00:14Z</time>
      </trkpt>
      <trkpt lat="44.86731" lon="5.08478">
        <ele>561.07</ele>
        <time>2023-01-12T09:00:28Z</time>
      </trkpt>
      <trkpt lat="44.86726" lon="5.08485">
        <ele>563.47</ele>
        <time>2023-01-12T09:00:44Z</time>
      </trkpt>
      <trkpt lat="44.86714" lon="5.08489">
        <ele>565.87</ele>
        <time>2023-01-12T09:01:01Z</time>
      </trkpt>
      <trkpt lat="44.86703" lon="5.08494">
        <ele>566.35</ele>
        <time>2023-01-12T09:01:16Z</time>
      </trkpt>
      <trkpt lat="44.86699" lon="5.08491">
        <ele>567.32</ele>
        <time>2023-01-12T09:01:33Z</time>
      </trkpt>
      <trkpt lat="44.86698" lon="5.08487">
        <ele>566.35</ele>
        <time>2023-01-12T09:08:28Z</time>
      </trkpt>
      <trkpt lat="44.86693" lon="5.08487">
        <ele>566.83</ele>
        <time>2023-01-12T09:08:43Z</time>
      </trkpt>
      <trkpt lat="44.86678" lon="5.08491">
        <ele>567.32</ele>
        <time>2023-01-12T09:08:58Z</time>
      </trkpt>
      <trkpt lat="44.86665" lon="5.08496">
        <ele>567.8</ele>
        <time>2023-01-12T09:09:11Z</time>
      </trkpt>
      <trkpt lat="44.86647" lon="5.08506">
        <ele>567.8</ele>
        <time>2023-01-12T09:09:27Z</time>
      </trkpt>
      <trkpt lat="44.86632" lon="5.08513">
        <ele>567.8</ele>
        <time>2023-01-12T09:09:41Z</time>
      </trkpt>
      <trkpt lat="44.86617" lon="5.08524">
        <ele>568.28</ele>
        <time>2023-01-12T09:09:56Z</time>
      </trkpt>
      <trkpt lat="44.8661" lon="5.08529">
        <ele>568.76</ele>
        <time>2023-01-12T09:10:03Z</time>
      </trkpt>
      <trkpt lat="44.86596" lon="5.08538">
        <ele>568.76</ele>
        <time>2023-01-12T09:10:17Z</time>
      </trkpt>
      <trkpt lat="44.86587" lon="5.08544">
        <ele>569.24</ele>
        <time>2023-01-12T09:10:25Z</time>
      </trkpt>
      <trkpt lat="44.86572" lon="5.08551">
        <ele>569.24</ele>
        <time>2023-01-12T09:10:39Z</time>
      </trkpt>
      <trkpt lat="44.86558" lon="5.0856">
        <ele>569.24</ele>
        <time>2023-01-12T09:10:53Z</time>
      </trkpt>
      <trkpt lat="44.86544" lon="5.08571">
        <ele>569.72</ele>
        <time>2023-01-12T09:11:07Z</time>
      </trkpt>
      <trkpt lat="44.86534" lon="5.08575">
        <ele>570.68</ele>
        <time>2023-01-12T09:11:17Z</time>
      </trkpt>
      <trkpt lat="44.86518" lon="5.08579">
        <ele>571.16</ele>
        <time>2023-01-12T09:11:31Z</time>
      </trkpt>
      <trkpt lat="44.86503" lon="5.08585">
        <ele>571.64</ele>
        <time>2023-01-12T09:11:46Z</time>
      </trkpt>
      <trkpt lat="44.86487" lon="5.08587">
        <ele>572.6</ele>
        <time>2023-01-12T09:12:01Z</time>
      </trkpt>
      <trkpt lat="44.86475" lon="5.08589">
        <ele>573.56</ele>
        <time>2023-01-12T09:12:12Z</time>
      </trkpt>
      <trkpt lat="44.86455" lon="5.08585">
        <ele>573.56</ele>
        <time>2023-01-12T09:12:28Z</time>
      </trkpt>
      <trkpt lat="44.86438" lon="5.08582">
        <ele>575.01</ele>
        <time>2023-01-12T09:12:44Z</time>
      </trkpt>
      <trkpt lat="44.86424" lon="5.08577">
        <ele>576.45</ele>
        <time>2023-01-12T09:12:58Z</time>
      </trkpt>
      <trkpt lat="44.86412" lon="5.08567">
        <ele>578.37</ele>
        <time>2023-01-12T09:13:13Z</time>
      </trkpt>
      <trkpt lat="44.86398" lon="5.08555">
        <ele>580.29</ele>
        <time>2023-01-12T09:13:30Z</time>
      </trkpt>
      <trkpt lat="44.86387" lon="5.08551">
        <ele>580.77</ele>
        <time>2023-01-12T09:13:42Z</time>
      </trkpt>
      <trkpt lat="44.86372" lon="5.08544">
        <ele>580.29</ele>
        <time>2023-01-12T09:13:56Z</time>
      </trkpt>
      <trkpt lat="44.86359" lon="5.08544">
        <ele>580.29</ele>
        <time>2023-01-12T09:14:09Z</time>
      </trkpt>
      <trkpt lat="44.86346" lon="5.08543">
        <ele>579.33</ele>
        <time>2023-01-12T09:14:25Z</time>
      </trkpt>
      <trkpt lat="44.86329" lon="5.08539">
        <ele>577.89</ele>
        <time>2023-01-12T09:14:41Z</time>
      </trkpt>
      <trkpt lat="44.86314" lon="5.08537">
        <ele>575.97</ele>
        <time>2023-01-12T09:14:55Z</time>
      </trkpt>
      <trkpt lat="44.86296" lon="5.08536">
        <ele>574.53</ele>
        <time>2023-01-12T09:15:10Z</time>
      </trkpt>
      <trkpt lat="44.8628" lon="5.08533">
        <ele>574.53</ele>
        <time>2023-01-12T09:15:25Z</time>
      </trkpt>
      <trkpt lat="44.86265" lon="5.08528">
        <ele>574.53</ele>
        <time>2023-01-12T09:15:40Z</time>
      </trkpt>
      <trkpt lat="44.8626" lon="5.08526">
        <ele>574.04</ele>
        <time>2023-01-12T09:15:44Z</time>
      </trkpt>
      <trkpt lat="44.86253" lon="5.08525">
        <ele>575.49</ele>
        <time>2023-01-12T09:15:51Z</time>
      </trkpt>
      <trkpt lat="44.86238" lon="5.08519">
        <ele>576.45</ele>
        <time>2023-01-12T09:16:06Z</time>
      </trkpt>
      <trkpt lat="44.86224" lon="5.08512">
        <ele>577.41</ele>
        <time>2023-01-12T09:16:21Z</time>
      </trkpt>
      <trkpt lat="44.8621" lon="5.08504">
        <ele>579.81</ele>
        <time>2023-01-12T09:16:38Z</time>
      </trkpt>
      <trkpt lat="44.86201" lon="5.08496">
        <ele>581.73</ele>
        <time>2023-01-12T09:16:51Z</time>
      </trkpt>
      <trkpt lat="44.8619" lon="5.08489">
        <ele>584.62</ele>
        <time>2023-01-12T09:17:06Z</time>
      </trkpt>
      <trkpt lat="44.86178" lon="5.08485">
        <ele>587.02</ele>
        <time>2023-01-12T09:17:23Z</time>
      </trkpt>
      <trkpt lat="44.86165" lon="5.08478">
        <ele>590.39</ele>
        <time>2023-01-12T09:17:40Z</time>
      </trkpt>
      <trkpt lat="44.86154" lon="5.08471">
        <ele>592.79</ele>
        <time>2023-01-12T09:17:56Z</time>
      </trkpt>
      <trkpt lat="44.86143" lon="5.08464">
        <ele>594.71</ele>
        <time>2023-01-12T09:18:11Z</time>
      </trkpt>
      <trkpt lat="44.86128" lon="5.08456">
        <ele>595.67</ele>
        <time>2023-01-12T09:18:27Z</time>
      </trkpt>
      <trkpt lat="44.86124" lon="5.08447">
        <ele>596.15</ele>
        <time>2023-01-12T09:18:40Z</time>
      </trkpt>
      <trkpt lat="44.86113" lon="5.08446">
        <ele>596.15</ele>
        <time>2023-01-12T09:18:56Z</time>
      </trkpt>
      <trkpt lat="44.86099" lon="5.0844">
        <ele>593.75</ele>
        <time>2023-01-12T09:19:11Z</time>
      </trkpt>
      <trkpt lat="44.86084" lon="5.08437">
        <ele>592.79</ele>
        <time>2023-01-12T09:19:26Z</time>
      </trkpt>
      <trkpt lat="44.86068" lon="5.08434">
        <ele>591.35</ele>
        <time>2023-01-12T09:19:42Z</time>
      </trkpt>
      <trkpt lat="44.8605" lon="5.08431">
        <ele>589.91</ele>
        <time>2023-01-12T09:19:59Z</time>
      </trkpt>
      <trkpt lat="44.86036" lon="5.0843">
        <ele>588.95</ele>
        <time>2023-01-12T09:20:13Z</time>
      </trkpt>
      <trkpt lat="44.86019" lon="5.08431">
        <ele>587.5</ele>
        <time>2023-01-12T09:20:28Z</time>
      </trkpt>
      <trkpt lat="44.86004" lon="5.08433">
        <ele>585.1</ele>
        <time>2023-01-12T09:20:43Z</time>
      </trkpt>
      <trkpt lat="44.85986" lon="5.0843">
        <ele>584.62</ele>
        <time>2023-01-12T09:21:00Z</time>
      </trkpt>
      <trkpt lat="44.85969" lon="5.0843">
        <ele>584.14</ele>
        <time>2023-01-12T09:21:15Z</time>
      </trkpt>
      <trkpt lat="44.85954" lon="5.08426">
        <ele>584.14</ele>
        <time>2023-01-12T09:21:29Z</time>
      </trkpt>
      <trkpt lat="44.85942" lon="5.08422">
        <ele>586.06</ele>
        <time>2023-01-12T09:21:42Z</time>
      </trkpt>
      <trkpt lat="44.85929" lon="5.08418">
        <ele>587.5</ele>
        <time>2023-01-12T09:21:55Z</time>
      </trkpt>
      <trkpt lat="44.85914" lon="5.08415">
        <ele>589.91</ele>
        <time>2023-01-12T09:22:12Z</time>
      </trkpt>
      <trkpt lat="44.85903" lon="5.08409">
        <ele>592.31</ele>
        <time>2023-01-12T09:22:26Z</time>
      </trkpt>
      <trkpt lat="44.85891" lon="5.08407">
        <ele>594.71</ele>
        <time>2023-01-12T09:22:42Z</time>
      </trkpt>
      <trkpt lat="44.85877" lon="5.08405">
        <ele>596.64</ele>
        <time>2023-01-12T09:22:57Z</time>
      </trkpt>
      <trkpt lat="44.85864" lon="5.08404">
        <ele>597.6</ele>
        <time>2023-01-12T09:23:12Z</time>
      </trkpt>
      <trkpt lat="44.85862" lon="5.08405">
        <ele>598.08</ele>
        <time>2023-01-12T09:23:14Z</time>
      </trkpt>
      <trkpt lat="44.8585" lon="5.08406">
        <ele>598.56</ele>
        <time>2023-01-12T09:23:28Z</time>
      </trkpt>
      <trkpt lat="44.85833" lon="5.08409">
        <ele>599.04</ele>
        <time>2023-01-12T09:23:44Z</time>
      </trkpt>
      <trkpt lat="44.8582" lon="5.08414">
        <ele>599.52</ele>
        <time>2023-01-12T09:23:57Z</time>
      </trkpt>
      <trkpt lat="44.85817" lon="5.08419">
        <ele>599.52</ele>
        <time>2023-01-12T09:24:02Z</time>
      </trkpt>
      <trkpt lat="44.85803" lon="5.08427">
        <ele>600.48</ele>
        <time>2023-01-12T09:24:17Z</time>
      </trkpt>
      <trkpt lat="44.858" lon="5.08428">
        <ele>600.96</ele>
        <time>2023-01-12T09:24:20Z</time>
      </trkpt>
      <trkpt lat="44.85788" lon="5.08434">
        <ele>601.92</ele>
        <time>2023-01-12T09:24:31Z</time>
      </trkpt>
      <trkpt lat="44.85772" lon="5.08441">
        <ele>602.88</ele>
        <time>2023-01-12T09:24:46Z</time>
      </trkpt>
      <trkpt lat="44.8576" lon="5.08446">
        <ele>603.85</ele>
        <time>2023-01-12T09:25:00Z</time>
      </trkpt>
      <trkpt lat="44.85747" lon="5.0845">
        <ele>606.25</ele>
        <time>2023-01-12T09:25:14Z</time>
      </trkpt>
      <trkpt lat="44.85733" lon="5.08455">
        <ele>606.73</ele>
        <time>2023-01-12T09:25:28Z</time>
      </trkpt>
      <trkpt lat="44.85721" lon="5.08454">
        <ele>606.25</ele>
        <time>2023-01-12T09:25:41Z</time>
      </trkpt>
      <trkpt lat="44.85707" lon="5.08453">
        <ele>606.73</ele>
        <time>2023-01-12T09:25:56Z</time>
      </trkpt>
      <trkpt lat="44.85702" lon="5.08451">
        <ele>607.21</ele>
        <time>2023-01-12T09:26:09Z</time>
      </trkpt>
      <trkpt lat="44.85687" lon="5.08447">
        <ele>609.13</ele>
        <time>2023-01-12T09:26:24Z</time>
      </trkpt>
      <trkpt lat="44.85674" lon="5.08446">
        <ele>611.54</ele>
        <time>2023-01-12T09:26:38Z</time>
      </trkpt>
      <trkpt lat="44.85663" lon="5.08443">
        <ele>613.94</ele>
        <time>2023-01-12T09:26:54Z</time>
      </trkpt>
      <trkpt lat="44.85651" lon="5.08439">
        <ele>615.86</ele>
        <time>2023-01-12T09:27:09Z</time>
      </trkpt>
      <trkpt lat="44.85641" lon="5.08438">
        <ele>618.75</ele>
        <time>2023-01-12T09:27:25Z</time>
      </trkpt>
      <trkpt lat="44.85629" lon="5.08437">
        <ele>620.67</ele>
        <time>2023-01-12T09:27:40Z</time>
      </trkpt>
      <trkpt lat="44.85617" lon="5.08431">
        <ele>623.55</ele>
        <time>2023-01-12T09:27:56Z</time>
      </trkpt>
      <trkpt lat="44.85606" lon="5.08433">
        <ele>625.47</ele>
        <time>2023-01-12T09:28:11Z</time>
      </trkpt>
      <trkpt lat="44.85599" lon="5.0844">
        <ele>625.47</ele>
        <time>2023-01-12T09:28:24Z</time>
      </trkpt>
      <trkpt lat="44.85587" lon="5.08451">
        <ele>624.99</ele>
        <time>2023-01-12T09:28:39Z</time>
      </trkpt>
      <trkpt lat="44.8557" lon="5.08459">
        <ele>623.07</ele>
        <time>2023-01-12T09:28:56Z</time>
      </trkpt>
      <trkpt lat="44.8556" lon="5.08468">
        <ele>622.59</ele>
        <time>2023-01-12T09:29:10Z</time>
      </trkpt>
      <trkpt lat="44.85551" lon="5.08474">
        <ele>622.59</ele>
        <time>2023-01-12T09:29:23Z</time>
      </trkpt>
      <trkpt lat="44.85537" lon="5.08482">
        <ele>624.03</ele>
        <time>2023-01-12T09:29:36Z</time>
      </trkpt>
      <trkpt lat="44.85524" lon="5.08489">
        <ele>625.47</ele>
        <time>2023-01-12T09:29:50Z</time>
      </trkpt>
      <trkpt lat="44.85513" lon="5.08494">
        <ele>625.96</ele>
        <time>2023-01-12T09:30:02Z</time>
      </trkpt>
      <trkpt lat="44.85499" lon="5.085">
        <ele>627.88</ele>
        <time>2023-01-12T09:30:17Z</time>
      </trkpt>
      <trkpt lat="44.8549" lon="5.08506">
        <ele>630.76</ele>
        <time>2023-01-12T09:30:32Z</time>
      </trkpt>
      <trkpt lat="44.85479" lon="5.0851">
        <ele>633.65</ele>
        <time>2023-01-12T09:30:46Z</time>
      </trkpt>
      <trkpt lat="44.8547" lon="5.08513">
        <ele>637.01</ele>
        <time>2023-01-12T09:31:02Z</time>
      </trkpt>
      <trkpt lat="44.85459" lon="5.08518">
        <ele>639.89</ele>
        <time>2023-01-12T09:31:18Z</time>
      </trkpt>
      <trkpt lat="44.85448" lon="5.08522">
        <ele>642.78</ele>
        <time>2023-01-12T09:31:35Z</time>
      </trkpt>
      <trkpt lat="44.85438" lon="5.08538">
        <ele>643.26</ele>
        <time>2023-01-12T09:31:51Z</time>
      </trkpt>
      <trkpt lat="44.85436" lon="5.08546">
        <ele>643.26</ele>
        <time>2023-01-12T09:31:56Z</time>
      </trkpt>
      <trkpt lat="44.85434" lon="5.08552">
        <ele>641.82</ele>
        <time>2023-01-12T09:32:01Z</time>
      </trkpt>
      <trkpt lat="44.85423" lon="5.08563">
        <ele>638.45</ele>
        <time>2023-01-12T09:32:16Z</time>
      </trkpt>
      <trkpt lat="44.85412" lon="5.08579">
        <ele>635.57</ele>
        <time>2023-01-12T09:32:30Z</time>
      </trkpt>
      <trkpt lat="44.85399" lon="5.08597">
        <ele>633.17</ele>
        <time>2023-01-12T09:32:46Z</time>
      </trkpt>
      <trkpt lat="44.8539" lon="5.08616">
        <ele>631.24</ele>
        <time>2023-01-12T09:33:02Z</time>
      </trkpt>
      <trkpt lat="44.85384" lon="5.08628">
        <ele>630.76</ele>
        <time>2023-01-12T09:33:12Z</time>
      </trkpt>
      <trkpt lat="44.85374" lon="5.08651">
        <ele>628.84</ele>
        <time>2023-01-12T09:33:28Z</time>
      </trkpt>
      <trkpt lat="44.85371" lon="5.08657">
        <ele>627.88</ele>
        <time>2023-01-12T09:33:32Z</time>
      </trkpt>
      <trkpt lat="44.85364" lon="5.08676">
        <ele>625.96</ele>
        <time>2023-01-12T09:33:47Z</time>
      </trkpt>
      <trkpt lat="44.85355" lon="5.08706">
        <ele>624.51</ele>
        <time>2023-01-12T09:34:05Z</time>
      </trkpt>
      <trkpt lat="44.85345" lon="5.08726">
        <ele>622.59</ele>
        <time>2023-01-12T09:34:19Z</time>
      </trkpt>
      <trkpt lat="44.85334" lon="5.08737">
        <ele>619.23</ele>
        <time>2023-01-12T09:34:30Z</time>
      </trkpt>
      <trkpt lat="44.85321" lon="5.08752">
        <ele>616.82</ele>
        <time>2023-01-12T09:34:44Z</time>
      </trkpt>
      <trkpt lat="44.85303" lon="5.0877">
        <ele>613.94</ele>
        <time>2023-01-12T09:35:01Z</time>
      </trkpt>
      <trkpt lat="44.85292" lon="5.08784">
        <ele>612.02</ele>
        <time>2023-01-12T09:35:18Z</time>
      </trkpt>
      <trkpt lat="44.8529" lon="5.08785">
        <ele>611.54</ele>
        <time>2023-01-12T09:39:41Z</time>
      </trkpt>
      <trkpt lat="44.85284" lon="5.08794">
        <ele>610.57</ele>
        <time>2023-01-12T09:40:14Z</time>
      </trkpt>
      <trkpt lat="44.85281" lon="5.08798">
        <ele>610.57</ele>
        <time>2023-01-12T09:40:44Z</time>
      </trkpt>
      <trkpt lat="44.8528" lon="5.08799">
        <ele>610.57</ele>
        <time>2023-01-12T09:41:10Z</time>
      </trkpt>
      <trkpt lat="44.85282" lon="5.08802">
        <ele>610.57</ele>
        <time>2023-01-12T09:41:33Z</time>
      </trkpt>
      <trkpt lat="44.85282" lon="5.08803">
        <ele>610.57</ele>
        <time>2023-01-12T09:42:18Z</time>
      </trkpt>
      <trkpt lat="44.85279" lon="5.08807">
        <ele>610.57</ele>
        <time>2023-01-12T09:42:35Z</time>
      </trkpt>
      <trkpt lat="44.85275" lon="5.08817">
        <ele>611.54</ele>
        <time>2023-01-12T09:42:44Z</time>
      </trkpt>
      <trkpt lat="44.85273" lon="5.08823">
        <ele>611.54</ele>
        <time>2023-01-12T09:42:49Z</time>
      </trkpt>
      <trkpt lat="44.85272" lon="5.08826">
        <ele>611.54</ele>
        <time>2023-01-12T09:42:51Z</time>
      </trkpt>
      <trkpt lat="44.85262" lon="5.0884">
        <ele>613.46</ele>
        <time>2023-01-12T09:43:07Z</time>
      </trkpt>
      <trkpt lat="44.85252" lon="5.08855">
        <ele>615.86</ele>
        <time>2023-01-12T09:43:23Z</time>
      </trkpt>
      <trkpt lat="44.85246" lon="5.08869">
        <ele>618.75</ele>
        <time>2023-01-12T09:43:39Z</time>
      </trkpt>
      <trkpt lat="44.85238" lon="5.08876">
        <ele>621.15</ele>
        <time>2023-01-12T09:43:53Z</time>
      </trkpt>
      <trkpt lat="44.85229" lon="5.08877">
        <ele>622.11</ele>
        <time>2023-01-12T09:44:07Z</time>
      </trkpt>
      <trkpt lat="44.85221" lon="5.08875">
        <ele>624.03</ele>
        <time>2023-01-12T09:44:23Z</time>
      </trkpt>
      <trkpt lat="44.8521" lon="5.08873">
        <ele>625.96</ele>
        <time>2023-01-12T09:44:38Z</time>
      </trkpt>
      <trkpt lat="44.852" lon="5.08871">
        <ele>627.88</ele>
        <time>2023-01-12T09:44:53Z</time>
      </trkpt>
      <trkpt lat="44.85187" lon="5.08868">
        <ele>629.8</ele>
        <time>2023-01-12T09:45:09Z</time>
      </trkpt>
      <trkpt lat="44.85175" lon="5.08865">
        <ele>631.24</ele>
        <time>2023-01-12T09:45:24Z</time>
      </trkpt>
      <trkpt lat="44.85162" lon="5.08862">
        <ele>633.65</ele>
        <time>2023-01-12T09:45:39Z</time>
      </trkpt>
      <trkpt lat="44.8515" lon="5.08857">
        <ele>635.57</ele>
        <time>2023-01-12T09:45:53Z</time>
      </trkpt>
      <trkpt lat="44.85137" lon="5.08856">
        <ele>637.97</ele>
        <time>2023-01-12T09:46:08Z</time>
      </trkpt>
      <trkpt lat="44.85128" lon="5.08853">
        <ele>640.38</ele>
        <time>2023-01-12T09:46:21Z</time>
      </trkpt>
      <trkpt lat="44.85116" lon="5.08849">
        <ele>642.3</ele>
        <time>2023-01-12T09:46:36Z</time>
      </trkpt>
      <trkpt lat="44.85104" lon="5.08848">
        <ele>644.22</ele>
        <time>2023-01-12T09:46:51Z</time>
      </trkpt>
      <trkpt lat="44.85092" lon="5.08848">
        <ele>646.62</ele>
        <time>2023-01-12T09:47:06Z</time>
      </trkpt>
      <trkpt lat="44.85081" lon="5.08846">
        <ele>649.03</ele>
        <time>2023-01-12T09:47:21Z</time>
      </trkpt>
      <trkpt lat="44.8507" lon="5.08848">
        <ele>650.95</ele>
        <time>2023-01-12T09:47:37Z</time>
      </trkpt>
      <trkpt lat="44.85056" lon="5.08848">
        <ele>652.87</ele>
        <time>2023-01-12T09:47:53Z</time>
      </trkpt>
      <trkpt lat="44.85044" lon="5.0885">
        <ele>655.28</ele>
        <time>2023-01-12T09:48:08Z</time>
      </trkpt>
      <trkpt lat="44.85042" lon="5.0885">
        <ele>654.8</ele>
        <time>2023-01-12T09:48:10Z</time>
      </trkpt>
      <trkpt lat="44.85031" lon="5.08857">
        <ele>657.2</ele>
        <time>2023-01-12T09:48:24Z</time>
      </trkpt>
      <trkpt lat="44.8502" lon="5.08865">
        <ele>658.64</ele>
        <time>2023-01-12T09:48:39Z</time>
      </trkpt>
      <trkpt lat="44.85008" lon="5.08875">
        <ele>661.52</ele>
        <time>2023-01-12T09:48:55Z</time>
      </trkpt>
      <trkpt lat="44.84999" lon="5.08888">
        <ele>664.41</ele>
        <time>2023-01-12T09:49:11Z</time>
      </trkpt>
      <trkpt lat="44.84991" lon="5.089">
        <ele>667.29</ele>
        <time>2023-01-12T09:49:29Z</time>
      </trkpt>
      <trkpt lat="44.8499" lon="5.08901">
        <ele>667.77</ele>
        <time>2023-01-12T09:49:31Z</time>
      </trkpt>
      <trkpt lat="44.8498" lon="5.08916">
        <ele>671.14</ele>
        <time>2023-01-12T09:49:49Z</time>
      </trkpt>
      <trkpt lat="44.84971" lon="5.08924">
        <ele>673.06</ele>
        <time>2023-01-12T09:50:04Z</time>
      </trkpt>
      <trkpt lat="44.84962" lon="5.08934">
        <ele>675.94</ele>
        <time>2023-01-12T09:50:19Z</time>
      </trkpt>
      <trkpt lat="44.84953" lon="5.08944">
        <ele>677.87</ele>
        <time>2023-01-12T09:50:34Z</time>
      </trkpt>
      <trkpt lat="44.84943" lon="5.08953">
        <ele>680.75</ele>
        <time>2023-01-12T09:50:49Z</time>
      </trkpt>
      <trkpt lat="44.84935" lon="5.08961">
        <ele>682.67</ele>
        <time>2023-01-12T09:51:04Z</time>
      </trkpt>
      <trkpt lat="44.84925" lon="5.08973">
        <ele>685.08</ele>
        <time>2023-01-12T09:51:22Z</time>
      </trkpt>
      <trkpt lat="44.84917" lon="5.08985">
        <ele>688.44</ele>
        <time>2023-01-12T09:51:40Z</time>
      </trkpt>
      <trkpt lat="44.84909" lon="5.08997">
        <ele>690.36</ele>
        <time>2023-01-12T09:51:56Z</time>
      </trkpt>
      <trkpt lat="44.84907" lon="5.09008">
        <ele>693.25</ele>
        <time>2023-01-12T09:52:11Z</time>
      </trkpt>
      <trkpt lat="44.84914" lon="5.09005">
        <ele>694.21</ele>
        <time>2023-01-12T09:52:21Z</time>
      </trkpt>
      <trkpt lat="44.84922" lon="5.09">
        <ele>695.17</ele>
        <time>2023-01-12T09:52:31Z</time>
      </trkpt>
      <trkpt lat="44.84927" lon="5.08997">
        <ele>695.65</ele>
        <time>2023-01-12T09:52:37Z</time>
      </trkpt>
      <trkpt lat="44.8494" lon="5.08995">
        <ele>698.05</ele>
        <time>2023-01-12T09:52:54Z</time>
      </trkpt>
      <trkpt lat="44.84952" lon="5.08995">
        <ele>700.46</ele>
        <time>2023-01-12T09:53:08Z</time>
      </trkpt>
      <trkpt lat="44.84965" lon="5.08993">
        <ele>702.86</ele>
        <time>2023-01-12T09:53:23Z</time>
      </trkpt>
      <trkpt lat="44.84978" lon="5.0899">
        <ele>704.78</ele>
        <time>2023-01-12T09:53:38Z</time>
      </trkpt>
      <trkpt lat="44.84992" lon="5.0899">
        <ele>705.75</ele>
        <time>2023-01-12T09:53:52Z</time>
      </trkpt>
      <trkpt lat="44.85002" lon="5.0899">
        <ele>706.71</ele>
        <time>2023-01-12T09:54:03Z</time>
      </trkpt>
      <trkpt lat="44.85001" lon="5.08998">
        <ele>708.63</ele>
        <time>2023-01-12T09:54:17Z</time>
      </trkpt>
      <trkpt lat="44.84996" lon="5.09005">
        <ele>711.51</ele>
        <time>2023-01-12T09:54:32Z</time>
      </trkpt>
      <trkpt lat="44.84991" lon="5.09012">
        <ele>713.92</ele>
        <time>2023-01-12T09:54:44Z</time>
      </trkpt>
      <trkpt lat="44.84984" lon="5.09023">
        <ele>717.28</ele>
        <time>2023-01-12T09:55:01Z</time>
      </trkpt>
      <trkpt lat="44.84978" lon="5.09033">
        <ele>720.16</ele>
        <time>2023-01-12T09:55:17Z</time>
      </trkpt>
      <trkpt lat="44.8497" lon="5.0904">
        <ele>723.05</ele>
        <time>2023-01-12T09:55:34Z</time>
      </trkpt>
      <trkpt lat="44.8496" lon="5.09047">
        <ele>725.45</ele>
        <time>2023-01-12T09:55:49Z</time>
      </trkpt>
      <trkpt lat="44.84951" lon="5.09056">
        <ele>728.34</ele>
        <time>2023-01-12T09:56:06Z</time>
      </trkpt>
      <trkpt lat="44.84946" lon="5.09063">
        <ele>729.78</ele>
        <time>2023-01-12T09:56:17Z</time>
      </trkpt>
      <trkpt lat="44.84934" lon="5.09075">
        <ele>732.18</ele>
        <time>2023-01-12T09:56:34Z</time>
      </trkpt>
      <trkpt lat="44.84924" lon="5.09086">
        <ele>734.58</ele>
        <time>2023-01-12T09:56:50Z</time>
      </trkpt>
      <trkpt lat="44.84914" lon="5.09094">
        <ele>736.51</ele>
        <time>2023-01-12T09:57:04Z</time>
      </trkpt>
      <trkpt lat="44.84914" lon="5.09102">
        <ele>738.43</ele>
        <time>2023-01-12T09:57:18Z</time>
      </trkpt>
      <trkpt lat="44.84925" lon="5.09101">
        <ele>741.31</ele>
        <time>2023-01-12T09:57:34Z</time>
      </trkpt>
      <trkpt lat="44.84937" lon="5.09098">
        <ele>743.72</ele>
        <time>2023-01-12T09:57:52Z</time>
      </trkpt>
      <trkpt lat="44.84946" lon="5.09099">
        <ele>747.08</ele>
        <time>2023-01-12T09:58:07Z</time>
      </trkpt>
      <trkpt lat="44.84951" lon="5.09108">
        <ele>749</ele>
        <time>2023-01-12T09:58:22Z</time>
      </trkpt>
      <trkpt lat="44.84952" lon="5.09118">
        <ele>749</ele>
        <time>2023-01-12T09:58:35Z</time>
      </trkpt>
      <trkpt lat="44.84951" lon="5.09125">
        <ele>749.49</ele>
        <time>2023-01-12T09:58:41Z</time>
      </trkpt>
      <trkpt lat="44.84947" lon="5.09144">
        <ele>750.45</ele>
        <time>2023-01-12T09:58:57Z</time>
      </trkpt>
      <trkpt lat="44.84945" lon="5.09148">
        <ele>750.45</ele>
        <time>2023-01-12T09:59:02Z</time>
      </trkpt>
      <trkpt lat="44.84944" lon="5.0915">
        <ele>750.45</ele>
        <time>2023-01-12T09:59:05Z</time>
      </trkpt>
      <trkpt lat="44.84941" lon="5.09163">
        <ele>750.45</ele>
        <time>2023-01-12T10:01:58Z</time>
      </trkpt>
      <trkpt lat="44.84934" lon="5.0917">
        <ele>750.45</ele>
        <time>2023-01-12T10:02:13Z</time>
      </trkpt>
      <trkpt lat="44.84929" lon="5.09175">
        <ele>751.41</ele>
        <time>2023-01-12T10:02:30Z</time>
      </trkpt>
      <trkpt lat="44.84927" lon="5.09178">
        <ele>751.41</ele>
        <time>2023-01-12T10:03:31Z</time>
      </trkpt>
      <trkpt lat="44.84922" lon="5.09181">
        <ele>751.89</ele>
        <time>2023-01-12T10:05:26Z</time>
      </trkpt>
      <trkpt lat="44.84918" lon="5.09188">
        <ele>751.89</ele>
        <time>2023-01-12T10:07:50Z</time>
      </trkpt>
      <trkpt lat="44.84909" lon="5.09198">
        <ele>752.37</ele>
        <time>2023-01-12T10:08:07Z</time>
      </trkpt>
      <trkpt lat="44.84896" lon="5.09208">
        <ele>752.37</ele>
        <time>2023-01-12T10:08:24Z</time>
      </trkpt>
      <trkpt lat="44.84885" lon="5.09216">
        <ele>752.85</ele>
        <time>2023-01-12T10:08:38Z</time>
      </trkpt>
      <trkpt lat="44.84868" lon="5.09226">
        <ele>752.85</ele>
        <time>2023-01-12T10:08:56Z</time>
      </trkpt>
      <trkpt lat="44.84846" lon="5.0924">
        <ele>752.85</ele>
        <time>2023-01-12T10:09:17Z</time>
      </trkpt>
      <trkpt lat="44.84826" lon="5.09253">
        <ele>752.37</ele>
        <time>2023-01-12T10:09:37Z</time>
      </trkpt>
      <trkpt lat="44.84806" lon="5.09266">
        <ele>752.37</ele>
        <time>2023-01-12T10:09:55Z</time>
      </trkpt>
      <trkpt lat="44.84785" lon="5.09279">
        <ele>751.41</ele>
        <time>2023-01-12T10:10:13Z</time>
      </trkpt>
      <trkpt lat="44.84766" lon="5.0929">
        <ele>751.41</ele>
        <time>2023-01-12T10:10:30Z</time>
      </trkpt>
      <trkpt lat="44.84744" lon="5.09302">
        <ele>751.41</ele>
        <time>2023-01-12T10:10:50Z</time>
      </trkpt>
      <trkpt lat="44.84724" lon="5.09313">
        <ele>750.93</ele>
        <time>2023-01-12T10:11:07Z</time>
      </trkpt>
      <trkpt lat="44.84699" lon="5.09327">
        <ele>750.93</ele>
        <time>2023-01-12T10:11:28Z</time>
      </trkpt>
      <trkpt lat="44.8468" lon="5.09337">
        <ele>750.45</ele>
        <time>2023-01-12T10:11:44Z</time>
      </trkpt>
      <trkpt lat="44.84659" lon="5.09348">
        <ele>749.97</ele>
        <time>2023-01-12T10:12:01Z</time>
      </trkpt>
      <trkpt lat="44.84637" lon="5.09362">
        <ele>749.97</ele>
        <time>2023-01-12T10:12:20Z</time>
      </trkpt>
      <trkpt lat="44.84615" lon="5.0938">
        <ele>749.49</ele>
        <time>2023-01-12T10:12:40Z</time>
      </trkpt>
      <trkpt lat="44.84592" lon="5.09399">
        <ele>749</ele>
        <time>2023-01-12T10:13:01Z</time>
      </trkpt>
      <trkpt lat="44.84576" lon="5.09416">
        <ele>749</ele>
        <time>2023-01-12T10:13:17Z</time>
      </trkpt>
      <trkpt lat="44.8456" lon="5.09439">
        <ele>749</ele>
        <time>2023-01-12T10:13:36Z</time>
      </trkpt>
      <trkpt lat="44.84545" lon="5.09467">
        <ele>749</ele>
        <time>2023-01-12T10:13:56Z</time>
      </trkpt>
      <trkpt lat="44.84527" lon="5.09499">
        <ele>749</ele>
        <time>2023-01-12T10:14:18Z</time>
      </trkpt>
      <trkpt lat="44.84514" lon="5.09522">
        <ele>749</ele>
        <time>2023-01-12T10:14:34Z</time>
      </trkpt>
      <trkpt lat="44.84496" lon="5.09541">
        <ele>750.93</ele>
        <time>2023-01-12T10:14:53Z</time>
      </trkpt>
      <trkpt lat="44.84481" lon="5.09541">
        <ele>751.41</ele>
        <time>2023-01-12T10:15:08Z</time>
      </trkpt>
      <trkpt lat="44.84474" lon="5.09545">
        <ele>751.41</ele>
        <time>2023-01-12T10:15:20Z</time>
      </trkpt>
      <trkpt lat="44.84473" lon="5.09546">
        <ele>752.37</ele>
        <time>2023-01-12T10:19:18Z</time>
      </trkpt>
      <trkpt lat="44.84461" lon="5.09551">
        <ele>752.85</ele>
        <time>2023-01-12T10:19:35Z</time>
      </trkpt>
      <trkpt lat="44.84439" lon="5.09559">
        <ele>752.85</ele>
        <time>2023-01-12T10:19:55Z</time>
      </trkpt>
      <trkpt lat="44.84418" lon="5.09564">
        <ele>752.85</ele>
        <time>2023-01-12T10:20:13Z</time>
      </trkpt>
      <trkpt lat="44.84399" lon="5.0957">
        <ele>752.85</ele>
        <time>2023-01-12T10:20:31Z</time>
      </trkpt>
      <trkpt lat="44.84388" lon="5.09574">
        <ele>751.89</ele>
        <time>2023-01-12T10:20:40Z</time>
      </trkpt>
      <trkpt lat="44.84366" lon="5.09573">
        <ele>749.97</ele>
        <time>2023-01-12T10:20:57Z</time>
      </trkpt>
      <trkpt lat="44.84353" lon="5.09541">
        <ele>748.52</ele>
        <time>2023-01-12T10:21:17Z</time>
      </trkpt>
      <trkpt lat="44.8435" lon="5.09499">
        <ele>747.08</ele>
        <time>2023-01-12T10:21:39Z</time>
      </trkpt>
      <trkpt lat="44.84345" lon="5.09461">
        <ele>747.08</ele>
        <time>2023-01-12T10:22:00Z</time>
      </trkpt>
      <trkpt lat="44.84333" lon="5.09428">
        <ele>747.08</ele>
        <time>2023-01-12T10:22:21Z</time>
      </trkpt>
      <trkpt lat="44.84317" lon="5.09422">
        <ele>747.08</ele>
        <time>2023-01-12T10:22:36Z</time>
      </trkpt>
      <trkpt lat="44.84299" lon="5.09421">
        <ele>747.08</ele>
        <time>2023-01-12T10:22:51Z</time>
      </trkpt>
      <trkpt lat="44.84279" lon="5.09422">
        <ele>747.08</ele>
        <time>2023-01-12T10:23:08Z</time>
      </trkpt>
      <trkpt lat="44.84257" lon="5.09422">
        <ele>749</ele>
        <time>2023-01-12T10:23:25Z</time>
      </trkpt>
      <trkpt lat="44.84237" lon="5.09421">
        <ele>749</ele>
        <time>2023-01-12T10:23:41Z</time>
      </trkpt>
      <trkpt lat="44.84214" lon="5.09419">
        <ele>749</ele>
        <time>2023-01-12T10:23:59Z</time>
      </trkpt>
      <trkpt lat="44.84189" lon="5.09418">
        <ele>749.49</ele>
        <time>2023-01-12T10:24:18Z</time>
      </trkpt>
      <trkpt lat="44.84165" lon="5.09416">
        <ele>749.49</ele>
        <time>2023-01-12T10:24:37Z</time>
      </trkpt>
      <trkpt lat="44.84141" lon="5.09414">
        <ele>749.49</ele>
        <time>2023-01-12T10:24:55Z</time>
      </trkpt>
      <trkpt lat="44.84116" lon="5.09412">
        <ele>749.49</ele>
        <time>2023-01-12T10:25:14Z</time>
      </trkpt>
      <trkpt lat="44.84092" lon="5.0941">
        <ele>749.49</ele>
        <time>2023-01-12T10:25:32Z</time>
      </trkpt>
      <trkpt lat="44.84067" lon="5.09404">
        <ele>749.49</ele>
        <time>2023-01-12T10:25:51Z</time>
      </trkpt>
      <trkpt lat="44.84041" lon="5.09394">
        <ele>749.49</ele>
        <time>2023-01-12T10:26:11Z</time>
      </trkpt>
      <trkpt lat="44.84016" lon="5.09379">
        <ele>749.49</ele>
        <time>2023-01-12T10:26:30Z</time>
      </trkpt>
      <trkpt lat="44.83995" lon="5.09366">
        <ele>749.49</ele>
        <time>2023-01-12T10:26:48Z</time>
      </trkpt>
      <trkpt lat="44.83971" lon="5.09355">
        <ele>748.52</ele>
        <time>2023-01-12T10:27:08Z</time>
      </trkpt>
      <trkpt lat="44.83952" lon="5.09351">
        <ele>748.52</ele>
        <time>2023-01-12T10:27:25Z</time>
      </trkpt>
      <trkpt lat="44.83939" lon="5.09352">
        <ele>749.97</ele>
        <time>2023-01-12T10:27:35Z</time>
      </trkpt>
      <trkpt lat="44.83918" lon="5.09353">
        <ele>750.45</ele>
        <time>2023-01-12T10:27:51Z</time>
      </trkpt>
      <trkpt lat="44.83893" lon="5.09348">
        <ele>750.45</ele>
        <time>2023-01-12T10:28:11Z</time>
      </trkpt>
      <trkpt lat="44.83871" lon="5.09343">
        <ele>750.45</ele>
        <time>2023-01-12T10:28:29Z</time>
      </trkpt>
      <trkpt lat="44.83847" lon="5.09339">
        <ele>750.93</ele>
        <time>2023-01-12T10:28:48Z</time>
      </trkpt>
      <trkpt lat="44.83824" lon="5.09333">
        <ele>751.41</ele>
        <time>2023-01-12T10:29:06Z</time>
      </trkpt>
      <trkpt lat="44.838" lon="5.09329">
        <ele>752.37</ele>
        <time>2023-01-12T10:29:24Z</time>
      </trkpt>
      <trkpt lat="44.83784" lon="5.09326">
        <ele>752.85</ele>
        <time>2023-01-12T10:29:39Z</time>
      </trkpt>
      <trkpt lat="44.83763" lon="5.09319">
        <ele>753.33</ele>
        <time>2023-01-12T10:29:59Z</time>
      </trkpt>
      <trkpt lat="44.8376" lon="5.09318">
        <ele>753.81</ele>
        <time>2023-01-12T10:30:02Z</time>
      </trkpt>
      <trkpt lat="44.83756" lon="5.09315">
        <ele>753.81</ele>
        <time>2023-01-12T10:30:06Z</time>
      </trkpt>
      <trkpt lat="44.83752" lon="5.09314">
        <ele>753.81</ele>
        <time>2023-01-12T10:30:10Z</time>
      </trkpt>
      <trkpt lat="44.83736" lon="5.09312">
        <ele>754.29</ele>
        <time>2023-01-12T10:30:24Z</time>
      </trkpt>
      <trkpt lat="44.83717" lon="5.09308">
        <ele>755.25</ele>
        <time>2023-01-12T10:30:40Z</time>
      </trkpt>
      <trkpt lat="44.83695" lon="5.09303">
        <ele>755.73</ele>
        <time>2023-01-12T10:30:58Z</time>
      </trkpt>
      <trkpt lat="44.83671" lon="5.09298">
        <ele>756.21</ele>
        <time>2023-01-12T10:31:16Z</time>
      </trkpt>
      <trkpt lat="44.83648" lon="5.09293">
        <ele>756.69</ele>
        <time>2023-01-12T10:31:34Z</time>
      </trkpt>
      <trkpt lat="44.83622" lon="5.09287">
        <ele>757.18</ele>
        <time>2023-01-12T10:31:54Z</time>
      </trkpt>
      <trkpt lat="44.83592" lon="5.09274">
        <ele>757.66</ele>
        <time>2023-01-12T10:32:17Z</time>
      </trkpt>
      <trkpt lat="44.83573" lon="5.09254">
        <ele>758.62</ele>
        <time>2023-01-12T10:32:35Z</time>
      </trkpt>
      <trkpt lat="44.83555" lon="5.0923">
        <ele>759.58</ele>
        <time>2023-01-12T10:32:54Z</time>
      </trkpt>
      <trkpt lat="44.83538" lon="5.09204">
        <ele>761.02</ele>
        <time>2023-01-12T10:33:13Z</time>
      </trkpt>
      <trkpt lat="44.83523" lon="5.09179">
        <ele>762.46</ele>
        <time>2023-01-12T10:33:31Z</time>
      </trkpt>
      <trkpt lat="44.83513" lon="5.09149">
        <ele>764.39</ele>
        <time>2023-01-12T10:33:50Z</time>
      </trkpt>
      <trkpt lat="44.8351" lon="5.0913">
        <ele>765.83</ele>
        <time>2023-01-12T10:34:05Z</time>
      </trkpt>
      <trkpt lat="44.83511" lon="5.09124">
        <ele>766.31</ele>
        <time>2023-01-12T10:34:19Z</time>
      </trkpt>
      <trkpt lat="44.83508" lon="5.09104">
        <ele>767.27</ele>
        <time>2023-01-12T10:34:51Z</time>
      </trkpt>
      <trkpt lat="44.83507" lon="5.09086">
        <ele>768.23</ele>
        <time>2023-01-12T10:35:05Z</time>
      </trkpt>
      <trkpt lat="44.83505" lon="5.09081">
        <ele>768.71</ele>
        <time>2023-01-12T10:38:08Z</time>
      </trkpt>
      <trkpt lat="44.835" lon="5.09058">
        <ele>769.67</ele>
        <time>2023-01-12T10:38:24Z</time>
      </trkpt>
      <trkpt lat="44.83494" lon="5.09031">
        <ele>770.63</ele>
        <time>2023-01-12T10:38:41Z</time>
      </trkpt>
      <trkpt lat="44.83492" lon="5.09023">
        <ele>771.11</ele>
        <time>2023-01-12T10:38:46Z</time>
      </trkpt>
      <trkpt lat="44.83488" lon="5.08993">
        <ele>771.6</ele>
        <time>2023-01-12T10:39:05Z</time>
      </trkpt>
      <trkpt lat="44.83485" lon="5.08967">
        <ele>772.08</ele>
        <time>2023-01-12T10:39:21Z</time>
      </trkpt>
      <trkpt lat="44.83484" lon="5.08958">
        <ele>772.56</ele>
        <time>2023-01-12T10:39:27Z</time>
      </trkpt>
      <trkpt lat="44.83483" lon="5.0895">
        <ele>773.04</ele>
        <time>2023-01-12T10:39:32Z</time>
      </trkpt>
      <trkpt lat="44.83476" lon="5.08923">
        <ele>774</ele>
        <time>2023-01-12T10:39:50Z</time>
      </trkpt>
      <trkpt lat="44.83464" lon="5.08906">
        <ele>774.48</ele>
        <time>2023-01-12T10:40:06Z</time>
      </trkpt>
      <trkpt lat="44.83449" lon="5.0889">
        <ele>774.48</ele>
        <time>2023-01-12T10:40:23Z</time>
      </trkpt>
      <trkpt lat="44.83431" lon="5.08877">
        <ele>773.04</ele>
        <time>2023-01-12T10:40:39Z</time>
      </trkpt>
      <trkpt lat="44.8343" lon="5.08876">
        <ele>773.04</ele>
        <time>2023-01-12T10:40:40Z</time>
      </trkpt>
      <trkpt lat="44.83409" lon="5.08865">
        <ele>771.6</ele>
        <time>2023-01-12T10:40:59Z</time>
      </trkpt>
      <trkpt lat="44.83384" lon="5.08852">
        <ele>771.11</ele>
        <time>2023-01-12T10:41:20Z</time>
      </trkpt>
      <trkpt lat="44.83365" lon="5.08851">
        <ele>771.11</ele>
        <time>2023-01-12T10:41:37Z</time>
      </trkpt>
      <trkpt lat="44.83339" lon="5.08849">
        <ele>771.11</ele>
        <time>2023-01-12T10:41:57Z</time>
      </trkpt>
      <trkpt lat="44.83318" lon="5.08844">
        <ele>771.11</ele>
        <time>2023-01-12T10:42:14Z</time>
      </trkpt>
      <trkpt lat="44.83297" lon="5.08839">
        <ele>771.11</ele>
        <time>2023-01-12T10:42:31Z</time>
      </trkpt>
      <trkpt lat="44.83277" lon="5.08825">
        <ele>772.08</ele>
        <time>2023-01-12T10:42:49Z</time>
      </trkpt>
      <trkpt lat="44.83272" lon="5.08822">
        <ele>772.56</ele>
        <time>2023-01-12T10:43:07Z</time>
      </trkpt>
      <trkpt lat="44.83266" lon="5.08817">
        <ele>773.04</ele>
        <time>2023-01-12T10:43:24Z</time>
      </trkpt>
      <trkpt lat="44.83249" lon="5.08804">
        <ele>773.52</ele>
        <time>2023-01-12T10:43:42Z</time>
      </trkpt>
      <trkpt lat="44.83246" lon="5.088">
        <ele>773.52</ele>
        <time>2023-01-12T10:43:45Z</time>
      </trkpt>
      <trkpt lat="44.83244" lon="5.08774">
        <ele>774.96</ele>
        <time>2023-01-12T10:44:02Z</time>
      </trkpt>
      <trkpt lat="44.83241" lon="5.08753">
        <ele>775.44</ele>
        <time>2023-01-12T10:44:17Z</time>
      </trkpt>
      <trkpt lat="44.83238" lon="5.08727">
        <ele>776.4</ele>
        <time>2023-01-12T10:44:34Z</time>
      </trkpt>
      <trkpt lat="44.83234" lon="5.08702">
        <ele>776.88</ele>
        <time>2023-01-12T10:44:50Z</time>
      </trkpt>
      <trkpt lat="44.83229" lon="5.08677">
        <ele>777.84</ele>
        <time>2023-01-12T10:45:06Z</time>
      </trkpt>
      <trkpt lat="44.83228" lon="5.08673">
        <ele>777.84</ele>
        <time>2023-01-12T10:45:09Z</time>
      </trkpt>
      <trkpt lat="44.83222" lon="5.08648">
        <ele>778.81</ele>
        <time>2023-01-12T10:45:25Z</time>
      </trkpt>
      <trkpt lat="44.83218" lon="5.08635">
        <ele>778.81</ele>
        <time>2023-01-12T10:45:34Z</time>
      </trkpt>
      <trkpt lat="44.83214" lon="5.08618">
        <ele>779.29</ele>
        <time>2023-01-12T10:45:46Z</time>
      </trkpt>
      <trkpt lat="44.83206" lon="5.08592">
        <ele>780.25</ele>
        <time>2023-01-12T10:46:03Z</time>
      </trkpt>
      <trkpt lat="44.83199" lon="5.08569">
        <ele>780.73</ele>
        <time>2023-01-12T10:46:19Z</time>
      </trkpt>
      <trkpt lat="44.83194" lon="5.08547">
        <ele>781.69</ele>
        <time>2023-01-12T10:46:33Z</time>
      </trkpt>
      <trkpt lat="44.83186" lon="5.08518">
        <ele>782.65</ele>
        <time>2023-01-12T10:46:51Z</time>
      </trkpt>
      <trkpt lat="44.83178" lon="5.08493">
        <ele>783.61</ele>
        <time>2023-01-12T10:47:07Z</time>
      </trkpt>
      <trkpt lat="44.83174" lon="5.08468">
        <ele>784.57</ele>
        <time>2023-01-12T10:47:22Z</time>
      </trkpt>
      <trkpt lat="44.83173" lon="5.08462">
        <ele>784.57</ele>
        <time>2023-01-12T10:47:26Z</time>
      </trkpt>
      <trkpt lat="44.83164" lon="5.08434">
        <ele>785.53</ele>
        <time>2023-01-12T10:47:46Z</time>
      </trkpt>
      <trkpt lat="44.83161" lon="5.08417">
        <ele>786.02</ele>
        <time>2023-01-12T10:47:57Z</time>
      </trkpt>
      <trkpt lat="44.83153" lon="5.08393">
        <ele>786.98</ele>
        <time>2023-01-12T10:48:13Z</time>
      </trkpt>
      <trkpt lat="44.8315" lon="5.08386">
        <ele>787.94</ele>
        <time>2023-01-12T10:48:19Z</time>
      </trkpt>
      <trkpt lat="44.83138" lon="5.08367">
        <ele>789.38</ele>
        <time>2023-01-12T10:48:36Z</time>
      </trkpt>
      <trkpt lat="44.83129" lon="5.08349">
        <ele>791.3</ele>
        <time>2023-01-12T10:48:51Z</time>
      </trkpt>
      <trkpt lat="44.83122" lon="5.08331">
        <ele>792.26</ele>
        <time>2023-01-12T10:49:06Z</time>
      </trkpt>
      <trkpt lat="44.83114" lon="5.08313">
        <ele>794.19</ele>
        <time>2023-01-12T10:49:22Z</time>
      </trkpt>
      <trkpt lat="44.83106" lon="5.08295">
        <ele>795.63</ele>
        <time>2023-01-12T10:49:37Z</time>
      </trkpt>
      <trkpt lat="44.83098" lon="5.08272">
        <ele>797.07</ele>
        <time>2023-01-12T10:49:54Z</time>
      </trkpt>
      <trkpt lat="44.83094" lon="5.0825">
        <ele>798.51</ele>
        <time>2023-01-12T10:50:10Z</time>
      </trkpt>
      <trkpt lat="44.83095" lon="5.08233">
        <ele>798.51</ele>
        <time>2023-01-12T10:50:26Z</time>
      </trkpt>
      <trkpt lat="44.83095" lon="5.08228">
        <ele>797.55</ele>
        <time>2023-01-12T10:50:41Z</time>
      </trkpt>
      <trkpt lat="44.83095" lon="5.08227">
        <ele>797.55</ele>
        <time>2023-01-12T10:51:04Z</time>
      </trkpt>
      <trkpt lat="44.83094" lon="5.08223">
        <ele>797.55</ele>
        <time>2023-01-12T10:51:15Z</time>
      </trkpt>
      <trkpt lat="44.83087" lon="5.08211">
        <ele>800.44</ele>
        <time>2023-01-12T10:51:28Z</time>
      </trkpt>
      <trkpt lat="44.83079" lon="5.08196">
        <ele>802.84</ele>
        <time>2023-01-12T10:51:44Z</time>
      </trkpt>
      <trkpt lat="44.83073" lon="5.08179">
        <ele>804.76</ele>
        <time>2023-01-12T10:51:59Z</time>
      </trkpt>
      <trkpt lat="44.83072" lon="5.08176">
        <ele>805.72</ele>
        <time>2023-01-12T10:52:02Z</time>
      </trkpt>
      <trkpt lat="44.8307" lon="5.08157">
        <ele>807.16</ele>
        <time>2023-01-12T10:52:18Z</time>
      </trkpt>
      <trkpt lat="44.83071" lon="5.08149">
        <ele>808.13</ele>
        <time>2023-01-12T10:52:29Z</time>
      </trkpt>
      <trkpt lat="44.83069" lon="5.08129">
        <ele>810.53</ele>
        <time>2023-01-12T10:52:44Z</time>
      </trkpt>
      <trkpt lat="44.83069" lon="5.08115">
        <ele>812.93</ele>
        <time>2023-01-12T10:52:59Z</time>
      </trkpt>
      <trkpt lat="44.83063" lon="5.08099">
        <ele>815.82</ele>
        <time>2023-01-12T10:53:18Z</time>
      </trkpt>
      <trkpt lat="44.83059" lon="5.0808">
        <ele>818.7</ele>
        <time>2023-01-12T10:53:35Z</time>
      </trkpt>
      <trkpt lat="44.83056" lon="5.08067">
        <ele>821.1</ele>
        <time>2023-01-12T10:53:49Z</time>
      </trkpt>
      <trkpt lat="44.83054" lon="5.08051">
        <ele>824.47</ele>
        <time>2023-01-12T10:54:06Z</time>
      </trkpt>
      <trkpt lat="44.83054" lon="5.08049">
        <ele>824.95</ele>
        <time>2023-01-12T10:54:08Z</time>
      </trkpt>
      <trkpt lat="44.8305" lon="5.08032">
        <ele>827.83</ele>
        <time>2023-01-12T10:54:23Z</time>
      </trkpt>
      <trkpt lat="44.83046" lon="5.08017">
        <ele>830.24</ele>
        <time>2023-01-12T10:54:39Z</time>
      </trkpt>
      <trkpt lat="44.83042" lon="5.08005">
        <ele>833.6</ele>
        <time>2023-01-12T10:54:54Z</time>
      </trkpt>
      <trkpt lat="44.83038" lon="5.0799">
        <ele>836.48</ele>
        <time>2023-01-12T10:55:12Z</time>
      </trkpt>
      <trkpt lat="44.8303" lon="5.07976">
        <ele>839.85</ele>
        <time>2023-01-12T10:55:30Z</time>
      </trkpt>
      <trkpt lat="44.83023" lon="5.07965">
        <ele>843.21</ele>
        <time>2023-01-12T10:55:46Z</time>
      </trkpt>
      <trkpt lat="44.83018" lon="5.07957">
        <ele>844.66</ele>
        <time>2023-01-12T10:56:00Z</time>
      </trkpt>
      <trkpt lat="44.83012" lon="5.07947">
        <ele>848.5</ele>
        <time>2023-01-12T10:56:15Z</time>
      </trkpt>
      <trkpt lat="44.83004" lon="5.07936">
        <ele>850.9</ele>
        <time>2023-01-12T10:56:32Z</time>
      </trkpt>
      <trkpt lat="44.82998" lon="5.07926">
        <ele>854.27</ele>
        <time>2023-01-12T10:56:46Z</time>
      </trkpt>
      <trkpt lat="44.8299" lon="5.07915">
        <ele>857.63</ele>
        <time>2023-01-12T10:57:05Z</time>
      </trkpt>
      <trkpt lat="44.82982" lon="5.07901">
        <ele>861</ele>
        <time>2023-01-12T10:57:23Z</time>
      </trkpt>
      <trkpt lat="44.82974" lon="5.07891">
        <ele>864.36</ele>
        <time>2023-01-12T10:57:40Z</time>
      </trkpt>
      <trkpt lat="44.82964" lon="5.07877">
        <ele>867.25</ele>
        <time>2023-01-12T10:58:01Z</time>
      </trkpt>
      <trkpt lat="44.82957" lon="5.07866">
        <ele>870.13</ele>
        <time>2023-01-12T10:58:17Z</time>
      </trkpt>
      <trkpt lat="44.82949" lon="5.07853">
        <ele>873.01</ele>
        <time>2023-01-12T10:58:36Z</time>
      </trkpt>
      <trkpt lat="44.82939" lon="5.07841">
        <ele>875.9</ele>
        <time>2023-01-12T10:58:52Z</time>
      </trkpt>
      <trkpt lat="44.82928" lon="5.07828">
        <ele>878.3</ele>
        <time>2023-01-12T10:59:09Z</time>
      </trkpt>
      <trkpt lat="44.82925" lon="5.07825">
        <ele>878.3</ele>
        <time>2023-01-12T10:59:13Z</time>
      </trkpt>
      <trkpt lat="44.82913" lon="5.07815">
        <ele>879.74</ele>
        <time>2023-01-12T10:59:29Z</time>
      </trkpt>
      <trkpt lat="44.82912" lon="5.07815">
        <ele>880.22</ele>
        <time>2023-01-12T10:59:31Z</time>
      </trkpt>
      <trkpt lat="44.82903" lon="5.07805">
        <ele>881.19</ele>
        <time>2023-01-12T10:59:46Z</time>
      </trkpt>
      <trkpt lat="44.82903" lon="5.07786">
        <ele>883.59</ele>
        <time>2023-01-12T11:00:03Z</time>
      </trkpt>
      <trkpt lat="44.82903" lon="5.07769">
        <ele>886.95</ele>
        <time>2023-01-12T11:00:18Z</time>
      </trkpt>
      <trkpt lat="44.82904" lon="5.07747">
        <ele>888.88</ele>
        <time>2023-01-12T11:00:35Z</time>
      </trkpt>
      <trkpt lat="44.82905" lon="5.07734">
        <ele>890.32</ele>
        <time>2023-01-12T11:00:46Z</time>
      </trkpt>
      <trkpt lat="44.82905" lon="5.07727">
        <ele>890.8</ele>
        <time>2023-01-12T11:00:52Z</time>
      </trkpt>
      <trkpt lat="44.82906" lon="5.07713">
        <ele>892.24</ele>
        <time>2023-01-12T11:01:03Z</time>
      </trkpt>
      <trkpt lat="44.82906" lon="5.07702">
        <ele>894.64</ele>
        <time>2023-01-12T11:01:15Z</time>
      </trkpt>
      <trkpt lat="44.82906" lon="5.07691">
        <ele>895.61</ele>
        <time>2023-01-12T11:01:31Z</time>
      </trkpt>
      <trkpt lat="44.82906" lon="5.07676">
        <ele>898.01</ele>
        <time>2023-01-12T11:01:46Z</time>
      </trkpt>
      <trkpt lat="44.82907" lon="5.07671">
        <ele>899.93</ele>
        <time>2023-01-12T11:01:55Z</time>
      </trkpt>
      <trkpt lat="44.82908" lon="5.07655">
        <ele>901.85</ele>
        <time>2023-01-12T11:02:09Z</time>
      </trkpt>
      <trkpt lat="44.82909" lon="5.07642">
        <ele>903.78</ele>
        <time>2023-01-12T11:02:20Z</time>
      </trkpt>
      <trkpt lat="44.8291" lon="5.07618">
        <ele>907.62</ele>
        <time>2023-01-12T11:02:40Z</time>
      </trkpt>
      <trkpt lat="44.8291" lon="5.07612">
        <ele>908.1</ele>
        <time>2023-01-12T11:02:45Z</time>
      </trkpt>
      <trkpt lat="44.82911" lon="5.07608">
        <ele>908.58</ele>
        <time>2023-01-12T11:02:48Z</time>
      </trkpt>
      <trkpt lat="44.82912" lon="5.07591">
        <ele>910.51</ele>
        <time>2023-01-12T11:03:02Z</time>
      </trkpt>
      <trkpt lat="44.82916" lon="5.07581">
        <ele>912.43</ele>
        <time>2023-01-12T11:03:12Z</time>
      </trkpt>
      <trkpt lat="44.82921" lon="5.07571">
        <ele>913.39</ele>
        <time>2023-01-12T11:03:23Z</time>
      </trkpt>
      <trkpt lat="44.82923" lon="5.07554">
        <ele>916.27</ele>
        <time>2023-01-12T11:03:40Z</time>
      </trkpt>
      <trkpt lat="44.82926" lon="5.07534">
        <ele>918.68</ele>
        <time>2023-01-12T11:03:57Z</time>
      </trkpt>
      <trkpt lat="44.82927" lon="5.07515">
        <ele>921.08</ele>
        <time>2023-01-12T11:04:13Z</time>
      </trkpt>
      <trkpt lat="44.82928" lon="5.075">
        <ele>923</ele>
        <time>2023-01-12T11:04:27Z</time>
      </trkpt>
      <trkpt lat="44.82931" lon="5.07482">
        <ele>924.45</ele>
        <time>2023-01-12T11:04:43Z</time>
      </trkpt>
      <trkpt lat="44.82933" lon="5.07465">
        <ele>925.89</ele>
        <time>2023-01-12T11:04:56Z</time>
      </trkpt>
      <trkpt lat="44.82935" lon="5.07447">
        <ele>926.85</ele>
        <time>2023-01-12T11:05:10Z</time>
      </trkpt>
      <trkpt lat="44.82936" lon="5.07433">
        <ele>928.29</ele>
        <time>2023-01-12T11:05:23Z</time>
      </trkpt>
      <trkpt lat="44.82937" lon="5.07415">
        <ele>929.73</ele>
        <time>2023-01-12T11:05:37Z</time>
      </trkpt>
      <trkpt lat="44.82944" lon="5.07398">
        <ele>929.73</ele>
        <time>2023-01-12T11:05:51Z</time>
      </trkpt>
      <trkpt lat="44.82952" lon="5.07381">
        <ele>929.73</ele>
        <time>2023-01-12T11:06:06Z</time>
      </trkpt>
      <trkpt lat="44.82957" lon="5.07375">
        <ele>928.29</ele>
        <time>2023-01-12T11:06:13Z</time>
      </trkpt>
      <trkpt lat="44.82962" lon="5.07371">
        <ele>927.81</ele>
        <time>2023-01-12T11:06:31Z</time>
      </trkpt>
      <trkpt lat="44.82963" lon="5.07369">
        <ele>928.29</ele>
        <time>2023-01-12T11:08:45Z</time>
      </trkpt>
      <trkpt lat="44.82962" lon="5.07368">
        <ele>928.29</ele>
        <time>2023-01-12T11:09:11Z</time>
      </trkpt>
      <trkpt lat="44.82957" lon="5.07369">
        <ele>928.29</ele>
        <time>2023-01-12T11:09:23Z</time>
      </trkpt>
      <trkpt lat="44.82944" lon="5.07369">
        <ele>931.17</ele>
        <time>2023-01-12T11:09:38Z</time>
      </trkpt>
      <trkpt lat="44.82931" lon="5.07367">
        <ele>934.54</ele>
        <time>2023-01-12T11:09:54Z</time>
      </trkpt>
      <trkpt lat="44.82918" lon="5.07365">
        <ele>935.98</ele>
        <time>2023-01-12T11:10:09Z</time>
      </trkpt>
      <trkpt lat="44.82905" lon="5.07361">
        <ele>937.42</ele>
        <time>2023-01-12T11:10:24Z</time>
      </trkpt>
      <trkpt lat="44.82892" lon="5.07347">
        <ele>937.42</ele>
        <time>2023-01-12T11:10:41Z</time>
      </trkpt>
      <trkpt lat="44.82887" lon="5.07345">
        <ele>937.42</ele>
        <time>2023-01-12T11:10:49Z</time>
      </trkpt>
      <trkpt lat="44.82869" lon="5.07343">
        <ele>935.98</ele>
        <time>2023-01-12T11:11:07Z</time>
      </trkpt>
      <trkpt lat="44.82852" lon="5.07336">
        <ele>935.02</ele>
        <time>2023-01-12T11:11:25Z</time>
      </trkpt>
      <trkpt lat="44.82848" lon="5.07335">
        <ele>934.06</ele>
        <time>2023-01-12T11:11:39Z</time>
      </trkpt>
      <trkpt lat="44.82839" lon="5.07329">
        <ele>932.62</ele>
        <time>2023-01-12T11:11:54Z</time>
      </trkpt>
      <trkpt lat="44.82821" lon="5.07321">
        <ele>929.73</ele>
        <time>2023-01-12T11:12:11Z</time>
      </trkpt>
      <trkpt lat="44.82803" lon="5.07317">
        <ele>926.37</ele>
        <time>2023-01-12T11:12:27Z</time>
      </trkpt>
      <trkpt lat="44.82782" lon="5.07318">
        <ele>924.45</ele>
        <time>2023-01-12T11:12:44Z</time>
      </trkpt>
      <trkpt lat="44.82764" lon="5.07319">
        <ele>923.96</ele>
        <time>2023-01-12T11:12:59Z</time>
      </trkpt>
      <trkpt lat="44.82747" lon="5.07329">
        <ele>923.96</ele>
        <time>2023-01-12T11:13:16Z</time>
      </trkpt>
      <trkpt lat="44.82726" lon="5.07333">
        <ele>923.96</ele>
        <time>2023-01-12T11:13:33Z</time>
      </trkpt>
      <trkpt lat="44.82709" lon="5.07334">
        <ele>924.93</ele>
        <time>2023-01-12T11:13:48Z</time>
      </trkpt>
      <trkpt lat="44.82694" lon="5.07337">
        <ele>923.48</ele>
        <time>2023-01-12T11:14:01Z</time>
      </trkpt>
      <trkpt lat="44.82673" lon="5.07341">
        <ele>922.04</ele>
        <time>2023-01-12T11:14:19Z</time>
      </trkpt>
      <trkpt lat="44.82651" lon="5.07348">
        <ele>920.6</ele>
        <time>2023-01-12T11:14:37Z</time>
      </trkpt>
      <trkpt lat="44.82631" lon="5.07351">
        <ele>919.16</ele>
        <time>2023-01-12T11:14:55Z</time>
      </trkpt>
      <trkpt lat="44.82614" lon="5.07355">
        <ele>918.68</ele>
        <time>2023-01-12T11:15:11Z</time>
      </trkpt>
      <trkpt lat="44.82596" lon="5.07361">
        <ele>920.12</ele>
        <time>2023-01-12T11:15:26Z</time>
      </trkpt>
      <trkpt lat="44.82583" lon="5.07364">
        <ele>921.08</ele>
        <time>2023-01-12T11:15:40Z</time>
      </trkpt>
      <trkpt lat="44.82572" lon="5.07369">
        <ele>923</ele>
        <time>2023-01-12T11:15:56Z</time>
      </trkpt>
      <trkpt lat="44.82572" lon="5.07369">
        <ele>923</ele>
        <time>2023-01-12T11:15:57Z</time>
      </trkpt>
      <trkpt lat="44.82566" lon="5.0737">
        <ele>923.96</ele>
        <time>2023-01-12T11:16:05Z</time>
      </trkpt>
      <trkpt lat="44.82551" lon="5.07374">
        <ele>926.37</ele>
        <time>2023-01-12T11:16:20Z</time>
      </trkpt>
      <trkpt lat="44.82538" lon="5.07376">
        <ele>928.29</ele>
        <time>2023-01-12T11:16:35Z</time>
      </trkpt>
      <trkpt lat="44.82527" lon="5.07377">
        <ele>930.69</ele>
        <time>2023-01-12T11:16:49Z</time>
      </trkpt>
      <trkpt lat="44.82523" lon="5.07379">
        <ele>931.65</ele>
        <time>2023-01-12T11:16:56Z</time>
      </trkpt>
      <trkpt lat="44.82508" lon="5.07385">
        <ele>934.54</ele>
        <time>2023-01-12T11:17:12Z</time>
      </trkpt>
      <trkpt lat="44.82507" lon="5.07385">
        <ele>934.54</ele>
        <time>2023-01-12T11:17:14Z</time>
      </trkpt>
      <trkpt lat="44.82495" lon="5.07382">
        <ele>937.9</ele>
        <time>2023-01-12T11:17:27Z</time>
      </trkpt>
      <trkpt lat="44.82481" lon="5.07377">
        <ele>940.79</ele>
        <time>2023-01-12T11:17:44Z</time>
      </trkpt>
      <trkpt lat="44.8247" lon="5.07369">
        <ele>944.15</ele>
        <time>2023-01-12T11:18:01Z</time>
      </trkpt>
      <trkpt lat="44.82458" lon="5.07362">
        <ele>946.56</ele>
        <time>2023-01-12T11:18:16Z</time>
      </trkpt>
      <trkpt lat="44.82446" lon="5.07355">
        <ele>948</ele>
        <time>2023-01-12T11:18:31Z</time>
      </trkpt>
      <trkpt lat="44.82438" lon="5.07346">
        <ele>949.44</ele>
        <time>2023-01-12T11:18:44Z</time>
      </trkpt>
      <trkpt lat="44.82433" lon="5.07335">
        <ele>951.84</ele>
        <time>2023-01-12T11:19:01Z</time>
      </trkpt>
      <trkpt lat="44.82436" lon="5.07337">
        <ele>951.84</ele>
        <time>2023-01-12T11:19:18Z</time>
      </trkpt>
      <trkpt lat="44.82437" lon="5.07337">
        <ele>950.4</ele>
        <time>2023-01-12T11:19:38Z</time>
      </trkpt>
      <trkpt lat="44.82439" lon="5.07339">
        <ele>950.4</ele>
        <time>2023-01-12T11:21:52Z</time>
      </trkpt>
      <trkpt lat="44.82444" lon="5.07341">
        <ele>949.44</ele>
        <time>2023-01-12T11:22:06Z</time>
      </trkpt>
      <trkpt lat="44.82447" lon="5.07341">
        <ele>950.88</ele>
        <time>2023-01-12T11:22:12Z</time>
      </trkpt>
      <trkpt lat="44.82457" lon="5.07351">
        <ele>949.44</ele>
        <time>2023-01-12T11:22:24Z</time>
      </trkpt>
      <trkpt lat="44.82467" lon="5.07362">
        <ele>946.07</ele>
        <time>2023-01-12T11:22:38Z</time>
      </trkpt>
      <trkpt lat="44.82469" lon="5.07363">
        <ele>945.59</ele>
        <time>2023-01-12T11:22:58Z</time>
      </trkpt>
      <trkpt lat="44.82469" lon="5.07363">
        <ele>945.59</ele>
        <time>2023-01-12T11:23:04Z</time>
      </trkpt>
      <trkpt lat="44.82474" lon="5.07364">
        <ele>945.11</ele>
        <time>2023-01-12T11:23:09Z</time>
      </trkpt>
      <trkpt lat="44.82486" lon="5.07372">
        <ele>941.75</ele>
        <time>2023-01-12T11:23:21Z</time>
      </trkpt>
      <trkpt lat="44.82492" lon="5.07374">
        <ele>940.31</ele>
        <time>2023-01-12T11:23:26Z</time>
      </trkpt>
      <trkpt lat="44.82505" lon="5.07383">
        <ele>936.46</ele>
        <time>2023-01-12T11:23:39Z</time>
      </trkpt>
      <trkpt lat="44.82506" lon="5.07383">
        <ele>935.5</ele>
        <time>2023-01-12T11:23:40Z</time>
      </trkpt>
      <trkpt lat="44.82523" lon="5.07376">
        <ele>932.14</ele>
        <time>2023-01-12T11:23:55Z</time>
      </trkpt>
      <trkpt lat="44.82542" lon="5.07373">
        <ele>928.77</ele>
        <time>2023-01-12T11:24:09Z</time>
      </trkpt>
      <trkpt lat="44.82563" lon="5.07367">
        <ele>925.41</ele>
        <time>2023-01-12T11:24:25Z</time>
      </trkpt>
      <trkpt lat="44.82581" lon="5.07363">
        <ele>922.04</ele>
        <time>2023-01-12T11:24:39Z</time>
      </trkpt>
      <trkpt lat="44.82604" lon="5.07356">
        <ele>920.12</ele>
        <time>2023-01-12T11:24:56Z</time>
      </trkpt>
      <trkpt lat="44.82608" lon="5.07354">
        <ele>920.12</ele>
        <time>2023-01-12T11:24:59Z</time>
      </trkpt>
      <trkpt lat="44.82632" lon="5.07348">
        <ele>919.64</ele>
        <time>2023-01-12T11:25:16Z</time>
      </trkpt>
      <trkpt lat="44.82649" lon="5.07345">
        <ele>921.56</ele>
        <time>2023-01-12T11:25:30Z</time>
      </trkpt>
      <trkpt lat="44.82655" lon="5.07344">
        <ele>922.04</ele>
        <time>2023-01-12T11:25:35Z</time>
      </trkpt>
      <trkpt lat="44.82672" lon="5.07337">
        <ele>923</ele>
        <time>2023-01-12T11:25:51Z</time>
      </trkpt>
      <trkpt lat="44.82677" lon="5.07336">
        <ele>923.96</ele>
        <time>2023-01-12T11:25:56Z</time>
      </trkpt>
      <trkpt lat="44.82697" lon="5.07332">
        <ele>924.93</ele>
        <time>2023-01-12T11:26:13Z</time>
      </trkpt>
      <trkpt lat="44.82717" lon="5.07329">
        <ele>926.37</ele>
        <time>2023-01-12T11:26:30Z</time>
      </trkpt>
      <trkpt lat="44.82742" lon="5.07326">
        <ele>926.85</ele>
        <time>2023-01-12T11:26:49Z</time>
      </trkpt>
      <trkpt lat="44.82745" lon="5.07326">
        <ele>925.41</ele>
        <time>2023-01-12T11:26:51Z</time>
      </trkpt>
      <trkpt lat="44.82753" lon="5.07324">
        <ele>925.41</ele>
        <time>2023-01-12T11:26:58Z</time>
      </trkpt>
      <trkpt lat="44.82755" lon="5.07324">
        <ele>924.93</ele>
        <time>2023-01-12T11:27:00Z</time>
      </trkpt>
      <trkpt lat="44.82777" lon="5.07314">
        <ele>924.93</ele>
        <time>2023-01-12T11:27:18Z</time>
      </trkpt>
      <trkpt lat="44.82795" lon="5.07316">
        <ele>926.37</ele>
        <time>2023-01-12T11:27:34Z</time>
      </trkpt>
      <trkpt lat="44.8281" lon="5.07315">
        <ele>928.29</ele>
        <time>2023-01-12T11:28:01Z</time>
      </trkpt>
      <trkpt lat="44.8282" lon="5.07308">
        <ele>930.69</ele>
        <time>2023-01-12T11:28:14Z</time>
      </trkpt>
      <trkpt lat="44.82825" lon="5.07304">
        <ele>932.14</ele>
        <time>2023-01-12T11:28:29Z</time>
      </trkpt>
      <trkpt lat="44.82826" lon="5.07306">
        <ele>932.14</ele>
        <time>2023-01-12T12:25:25Z</time>
      </trkpt>
      <trkpt lat="44.82829" lon="5.07308">
        <ele>932.14</ele>
        <time>2023-01-12T12:25:28Z</time>
      </trkpt>
      <trkpt lat="44.8284" lon="5.07325">
        <ele>934.06</ele>
        <time>2023-01-12T12:25:46Z</time>
      </trkpt>
      <trkpt lat="44.82856" lon="5.07334">
        <ele>935.98</ele>
        <time>2023-01-12T12:26:02Z</time>
      </trkpt>
      <trkpt lat="44.8287" lon="5.07339">
        <ele>936.46</ele>
        <time>2023-01-12T12:26:15Z</time>
      </trkpt>
      <trkpt lat="44.82883" lon="5.07342">
        <ele>937.42</ele>
        <time>2023-01-12T12:26:30Z</time>
      </trkpt>
      <trkpt lat="44.82888" lon="5.07345">
        <ele>938.38</ele>
        <time>2023-01-12T12:26:43Z</time>
      </trkpt>
      <trkpt lat="44.82893" lon="5.07351">
        <ele>938.38</ele>
        <time>2023-01-12T12:26:50Z</time>
      </trkpt>
      <trkpt lat="44.82905" lon="5.07358">
        <ele>938.38</ele>
        <time>2023-01-12T12:27:06Z</time>
      </trkpt>
      <trkpt lat="44.8291" lon="5.07357">
        <ele>938.38</ele>
        <time>2023-01-12T12:27:11Z</time>
      </trkpt>
      <trkpt lat="44.82928" lon="5.07365">
        <ele>935.02</ele>
        <time>2023-01-12T12:27:28Z</time>
      </trkpt>
      <trkpt lat="44.8294" lon="5.07368">
        <ele>932.62</ele>
        <time>2023-01-12T12:27:39Z</time>
      </trkpt>
      <trkpt lat="44.82955" lon="5.07367">
        <ele>929.25</ele>
        <time>2023-01-12T12:27:52Z</time>
      </trkpt>
      <trkpt lat="44.82969" lon="5.0737">
        <ele>925.89</ele>
        <time>2023-01-12T12:28:05Z</time>
      </trkpt>
      <trkpt lat="44.82979" lon="5.07373">
        <ele>923</ele>
        <time>2023-01-12T12:28:17Z</time>
      </trkpt>
      <trkpt lat="44.82981" lon="5.07373">
        <ele>922.04</ele>
        <time>2023-01-12T12:28:20Z</time>
      </trkpt>
      <trkpt lat="44.82991" lon="5.07373">
        <ele>918.68</ele>
        <time>2023-01-12T12:28:30Z</time>
      </trkpt>
      <trkpt lat="44.83004" lon="5.07371">
        <ele>915.31</ele>
        <time>2023-01-12T12:28:41Z</time>
      </trkpt>
      <trkpt lat="44.83005" lon="5.0737">
        <ele>914.83</ele>
        <time>2023-01-12T12:28:42Z</time>
      </trkpt>
      <trkpt lat="44.83016" lon="5.07365">
        <ele>911.47</ele>
        <time>2023-01-12T12:28:53Z</time>
      </trkpt>
      <trkpt lat="44.83027" lon="5.07363">
        <ele>908.58</ele>
        <time>2023-01-12T12:29:03Z</time>
      </trkpt>
      <trkpt lat="44.83041" lon="5.07364">
        <ele>905.22</ele>
        <time>2023-01-12T12:29:16Z</time>
      </trkpt>
      <trkpt lat="44.83052" lon="5.07365">
        <ele>901.85</ele>
        <time>2023-01-12T12:29:29Z</time>
      </trkpt>
      <trkpt lat="44.83053" lon="5.07365">
        <ele>901.85</ele>
        <time>2023-01-12T12:29:30Z</time>
      </trkpt>
      <trkpt lat="44.83065" lon="5.07364">
        <ele>898.01</ele>
        <time>2023-01-12T12:29:44Z</time>
      </trkpt>
      <trkpt lat="44.83074" lon="5.07361">
        <ele>896.09</ele>
        <time>2023-01-12T12:29:57Z</time>
      </trkpt>
      <trkpt lat="44.83079" lon="5.07361">
        <ele>894.64</ele>
        <time>2023-01-12T12:30:02Z</time>
      </trkpt>
      <trkpt lat="44.83085" lon="5.0736">
        <ele>893.68</ele>
        <time>2023-01-12T12:30:07Z</time>
      </trkpt>
      <trkpt lat="44.83089" lon="5.07359">
        <ele>892.24</ele>
        <time>2023-01-12T12:30:10Z</time>
      </trkpt>
      <trkpt lat="44.83101" lon="5.07354">
        <ele>889.36</ele>
        <time>2023-01-12T12:30:22Z</time>
      </trkpt>
      <trkpt lat="44.83116" lon="5.0735">
        <ele>886.47</ele>
        <time>2023-01-12T12:30:35Z</time>
      </trkpt>
      <trkpt lat="44.83137" lon="5.07343">
        <ele>883.59</ele>
        <time>2023-01-12T12:30:53Z</time>
      </trkpt>
      <trkpt lat="44.8314" lon="5.07347">
        <ele>882.15</ele>
        <time>2023-01-12T12:31:48Z</time>
      </trkpt>
      <trkpt lat="44.83155" lon="5.0735">
        <ele>881.19</ele>
        <time>2023-01-12T12:32:00Z</time>
      </trkpt>
      <trkpt lat="44.83165" lon="5.0735">
        <ele>880.22</ele>
        <time>2023-01-12T12:32:17Z</time>
      </trkpt>
      <trkpt lat="44.83165" lon="5.07351">
        <ele>880.22</ele>
        <time>2023-01-12T12:32:37Z</time>
      </trkpt>
      <trkpt lat="44.83173" lon="5.07346">
        <ele>880.22</ele>
        <time>2023-01-12T12:32:49Z</time>
      </trkpt>
      <trkpt lat="44.83181" lon="5.0734">
        <ele>881.67</ele>
        <time>2023-01-12T12:32:56Z</time>
      </trkpt>
      <trkpt lat="44.83194" lon="5.07328">
        <ele>883.11</ele>
        <time>2023-01-12T12:33:11Z</time>
      </trkpt>
      <trkpt lat="44.83212" lon="5.07322">
        <ele>884.07</ele>
        <time>2023-01-12T12:33:27Z</time>
      </trkpt>
      <trkpt lat="44.83233" lon="5.07322">
        <ele>885.51</ele>
        <time>2023-01-12T12:33:43Z</time>
      </trkpt>
      <trkpt lat="44.83251" lon="5.07328">
        <ele>885.99</ele>
        <time>2023-01-12T12:33:58Z</time>
      </trkpt>
      <trkpt lat="44.83267" lon="5.07329">
        <ele>886.95</ele>
        <time>2023-01-12T12:34:11Z</time>
      </trkpt>
      <trkpt lat="44.83284" lon="5.07337">
        <ele>888.4</ele>
        <time>2023-01-12T12:34:26Z</time>
      </trkpt>
      <trkpt lat="44.83289" lon="5.07339">
        <ele>888.88</ele>
        <time>2023-01-12T12:34:31Z</time>
      </trkpt>
      <trkpt lat="44.83291" lon="5.07339">
        <ele>888.88</ele>
        <time>2023-01-12T12:34:33Z</time>
      </trkpt>
      <trkpt lat="44.83298" lon="5.07342">
        <ele>889.36</ele>
        <time>2023-01-12T12:34:41Z</time>
      </trkpt>
      <trkpt lat="44.83313" lon="5.07351">
        <ele>889.36</ele>
        <time>2023-01-12T12:34:55Z</time>
      </trkpt>
      <trkpt lat="44.83323" lon="5.07357">
        <ele>890.32</ele>
        <time>2023-01-12T12:35:07Z</time>
      </trkpt>
      <trkpt lat="44.8334" lon="5.07366">
        <ele>890.8</ele>
        <time>2023-01-12T12:35:23Z</time>
      </trkpt>
      <trkpt lat="44.83359" lon="5.07379">
        <ele>891.28</ele>
        <time>2023-01-12T12:35:41Z</time>
      </trkpt>
      <trkpt lat="44.83362" lon="5.07382">
        <ele>891.28</ele>
        <time>2023-01-12T12:35:44Z</time>
      </trkpt>
      <trkpt lat="44.83371" lon="5.0739">
        <ele>891.28</ele>
        <time>2023-01-12T12:35:53Z</time>
      </trkpt>
      <trkpt lat="44.83376" lon="5.07396">
        <ele>891.28</ele>
        <time>2023-01-12T12:35:59Z</time>
      </trkpt>
      <trkpt lat="44.83388" lon="5.07402">
        <ele>890.8</ele>
        <time>2023-01-12T12:36:13Z</time>
      </trkpt>
      <trkpt lat="44.83393" lon="5.07408">
        <ele>889.36</ele>
        <time>2023-01-12T12:36:20Z</time>
      </trkpt>
      <trkpt lat="44.83391" lon="5.0742">
        <ele>887.91</ele>
        <time>2023-01-12T12:36:33Z</time>
      </trkpt>
      <trkpt lat="44.83388" lon="5.07433">
        <ele>884.55</ele>
        <time>2023-01-12T12:36:45Z</time>
      </trkpt>
      <trkpt lat="44.83385" lon="5.07442">
        <ele>882.63</ele>
        <time>2023-01-12T12:36:53Z</time>
      </trkpt>
      <trkpt lat="44.83384" lon="5.07445">
        <ele>882.15</ele>
        <time>2023-01-12T12:36:55Z</time>
      </trkpt>
      <trkpt lat="44.83382" lon="5.07468">
        <ele>878.78</ele>
        <time>2023-01-12T12:37:12Z</time>
      </trkpt>
      <trkpt lat="44.8338" lon="5.07485">
        <ele>875.9</ele>
        <time>2023-01-12T12:37:27Z</time>
      </trkpt>
      <trkpt lat="44.8338" lon="5.07504">
        <ele>873.5</ele>
        <time>2023-01-12T12:37:43Z</time>
      </trkpt>
      <trkpt lat="44.83381" lon="5.07522">
        <ele>869.65</ele>
        <time>2023-01-12T12:37:59Z</time>
      </trkpt>
      <trkpt lat="44.83387" lon="5.07531">
        <ele>866.77</ele>
        <time>2023-01-12T12:38:11Z</time>
      </trkpt>
      <trkpt lat="44.83389" lon="5.07543">
        <ele>863.4</ele>
        <time>2023-01-12T12:38:24Z</time>
      </trkpt>
      <trkpt lat="44.8339" lon="5.07558">
        <ele>860.52</ele>
        <time>2023-01-12T12:38:38Z</time>
      </trkpt>
      <trkpt lat="44.83388" lon="5.07571">
        <ele>857.63</ele>
        <time>2023-01-12T12:38:50Z</time>
      </trkpt>
      <trkpt lat="44.83387" lon="5.07588">
        <ele>854.27</ele>
        <time>2023-01-12T12:39:02Z</time>
      </trkpt>
      <trkpt lat="44.83385" lon="5.07605">
        <ele>852.83</ele>
        <time>2023-01-12T12:39:15Z</time>
      </trkpt>
      <trkpt lat="44.8338" lon="5.07623">
        <ele>849.46</ele>
        <time>2023-01-12T12:39:32Z</time>
      </trkpt>
      <trkpt lat="44.83379" lon="5.0763">
        <ele>848.02</ele>
        <time>2023-01-12T12:39:46Z</time>
      </trkpt>
      <trkpt lat="44.83378" lon="5.07633">
        <ele>848.02</ele>
        <time>2023-01-12T12:40:06Z</time>
      </trkpt>
      <trkpt lat="44.83377" lon="5.07633">
        <ele>848.02</ele>
        <time>2023-01-12T12:40:26Z</time>
      </trkpt>
      <trkpt lat="44.8338" lon="5.07637">
        <ele>846.1</ele>
        <time>2023-01-12T12:40:44Z</time>
      </trkpt>
      <trkpt lat="44.83381" lon="5.07637">
        <ele>845.62</ele>
        <time>2023-01-12T12:40:58Z</time>
      </trkpt>
      <trkpt lat="44.83383" lon="5.07634">
        <ele>844.66</ele>
        <time>2023-01-12T12:41:16Z</time>
      </trkpt>
      <trkpt lat="44.83387" lon="5.07633">
        <ele>842.25</ele>
        <time>2023-01-12T12:41:28Z</time>
      </trkpt>
      <trkpt lat="44.83391" lon="5.07632">
        <ele>840.81</ele>
        <time>2023-01-12T12:41:44Z</time>
      </trkpt>
      <trkpt lat="44.83395" lon="5.0763">
        <ele>839.85</ele>
        <time>2023-01-12T12:42:00Z</time>
      </trkpt>
      <trkpt lat="44.83401" lon="5.0763">
        <ele>836.48</ele>
        <time>2023-01-12T12:42:16Z</time>
      </trkpt>
      <trkpt lat="44.83406" lon="5.07626">
        <ele>834.56</ele>
        <time>2023-01-12T12:42:28Z</time>
      </trkpt>
      <trkpt lat="44.83413" lon="5.07618">
        <ele>831.68</ele>
        <time>2023-01-12T12:42:41Z</time>
      </trkpt>
      <trkpt lat="44.83414" lon="5.07611">
        <ele>830.24</ele>
        <time>2023-01-12T12:42:56Z</time>
      </trkpt>
      <trkpt lat="44.83418" lon="5.07611">
        <ele>830.24</ele>
        <time>2023-01-12T12:43:20Z</time>
      </trkpt>
      <trkpt lat="44.8342" lon="5.0761">
        <ele>830.24</ele>
        <time>2023-01-12T12:43:38Z</time>
      </trkpt>
      <trkpt lat="44.83425" lon="5.076">
        <ele>829.27</ele>
        <time>2023-01-12T12:43:53Z</time>
      </trkpt>
      <trkpt lat="44.83431" lon="5.07588">
        <ele>827.35</ele>
        <time>2023-01-12T12:44:08Z</time>
      </trkpt>
      <trkpt lat="44.83434" lon="5.07579">
        <ele>825.43</ele>
        <time>2023-01-12T12:44:17Z</time>
      </trkpt>
      <trkpt lat="44.8344" lon="5.07562">
        <ele>823.51</ele>
        <time>2023-01-12T12:44:30Z</time>
      </trkpt>
      <trkpt lat="44.83449" lon="5.0755">
        <ele>820.14</ele>
        <time>2023-01-12T12:44:42Z</time>
      </trkpt>
      <trkpt lat="44.83458" lon="5.07536">
        <ele>816.78</ele>
        <time>2023-01-12T12:44:54Z</time>
      </trkpt>
      <trkpt lat="44.83464" lon="5.07528">
        <ele>813.41</ele>
        <time>2023-01-12T12:45:05Z</time>
      </trkpt>
      <trkpt lat="44.83472" lon="5.07519">
        <ele>810.53</ele>
        <time>2023-01-12T12:45:18Z</time>
      </trkpt>
      <trkpt lat="44.83478" lon="5.07511">
        <ele>807.16</ele>
        <time>2023-01-12T12:45:30Z</time>
      </trkpt>
      <trkpt lat="44.8348" lon="5.07509">
        <ele>805.72</ele>
        <time>2023-01-12T12:45:36Z</time>
      </trkpt>
      <trkpt lat="44.83484" lon="5.07505">
        <ele>802.84</ele>
        <time>2023-01-12T12:45:45Z</time>
      </trkpt>
      <trkpt lat="44.83491" lon="5.07498">
        <ele>798.99</ele>
        <time>2023-01-12T12:45:56Z</time>
      </trkpt>
      <trkpt lat="44.83501" lon="5.07489">
        <ele>795.63</ele>
        <time>2023-01-12T12:46:07Z</time>
      </trkpt>
      <trkpt lat="44.83509" lon="5.07481">
        <ele>792.74</ele>
        <time>2023-01-12T12:46:18Z</time>
      </trkpt>
      <trkpt lat="44.83517" lon="5.07477">
        <ele>789.38</ele>
        <time>2023-01-12T12:46:32Z</time>
      </trkpt>
      <trkpt lat="44.83522" lon="5.0747">
        <ele>786.02</ele>
        <time>2023-01-12T12:46:42Z</time>
      </trkpt>
      <trkpt lat="44.83528" lon="5.07464">
        <ele>783.13</ele>
        <time>2023-01-12T12:46:50Z</time>
      </trkpt>
      <trkpt lat="44.83535" lon="5.07456">
        <ele>779.29</ele>
        <time>2023-01-12T12:47:03Z</time>
      </trkpt>
      <trkpt lat="44.83541" lon="5.07445">
        <ele>775.92</ele>
        <time>2023-01-12T12:47:15Z</time>
      </trkpt>
      <trkpt lat="44.83547" lon="5.07439">
        <ele>772.56</ele>
        <time>2023-01-12T12:47:27Z</time>
      </trkpt>
      <trkpt lat="44.83555" lon="5.07434">
        <ele>769.19</ele>
        <time>2023-01-12T12:47:39Z</time>
      </trkpt>
      <trkpt lat="44.83556" lon="5.07433">
        <ele>769.19</ele>
        <time>2023-01-12T12:47:40Z</time>
      </trkpt>
      <trkpt lat="44.83561" lon="5.07427">
        <ele>765.83</ele>
        <time>2023-01-12T12:47:50Z</time>
      </trkpt>
      <trkpt lat="44.83569" lon="5.07419">
        <ele>762.46</ele>
        <time>2023-01-12T12:48:01Z</time>
      </trkpt>
      <trkpt lat="44.83576" lon="5.07414">
        <ele>759.58</ele>
        <time>2023-01-12T12:48:10Z</time>
      </trkpt>
      <trkpt lat="44.83579" lon="5.0741">
        <ele>757.66</ele>
        <time>2023-01-12T12:48:23Z</time>
      </trkpt>
      <trkpt lat="44.83587" lon="5.07404">
        <ele>754.29</ele>
        <time>2023-01-12T12:48:34Z</time>
      </trkpt>
      <trkpt lat="44.83596" lon="5.074">
        <ele>750.93</ele>
        <time>2023-01-12T12:48:44Z</time>
      </trkpt>
      <trkpt lat="44.83599" lon="5.07399">
        <ele>750.45</ele>
        <time>2023-01-12T12:48:47Z</time>
      </trkpt>
      <trkpt lat="44.83609" lon="5.07402">
        <ele>747.08</ele>
        <time>2023-01-12T12:48:57Z</time>
      </trkpt>
      <trkpt lat="44.83623" lon="5.07403">
        <ele>743.24</ele>
        <time>2023-01-12T12:49:10Z</time>
      </trkpt>
      <trkpt lat="44.83637" lon="5.07406">
        <ele>741.31</ele>
        <time>2023-01-12T12:49:25Z</time>
      </trkpt>
      <trkpt lat="44.83639" lon="5.07405">
        <ele>740.83</ele>
        <time>2023-01-12T12:49:28Z</time>
      </trkpt>
      <trkpt lat="44.83642" lon="5.07404">
        <ele>739.87</ele>
        <time>2023-01-12T12:49:43Z</time>
      </trkpt>
      <trkpt lat="44.83646" lon="5.07404">
        <ele>739.87</ele>
        <time>2023-01-12T12:56:14Z</time>
      </trkpt>
      <trkpt lat="44.83652" lon="5.07403">
        <ele>737.95</ele>
        <time>2023-01-12T12:56:45Z</time>
      </trkpt>
      <trkpt lat="44.83658" lon="5.07403">
        <ele>737.47</ele>
        <time>2023-01-12T12:56:54Z</time>
      </trkpt>
      <trkpt lat="44.83661" lon="5.07404">
        <ele>737.47</ele>
        <time>2023-01-12T12:56:56Z</time>
      </trkpt>
      <trkpt lat="44.83681" lon="5.07407">
        <ele>737.47</ele>
        <time>2023-01-12T12:57:12Z</time>
      </trkpt>
      <trkpt lat="44.83686" lon="5.07406">
        <ele>737.47</ele>
        <time>2023-01-12T12:57:16Z</time>
      </trkpt>
      <trkpt lat="44.83706" lon="5.07398">
        <ele>735.07</ele>
        <time>2023-01-12T12:57:32Z</time>
      </trkpt>
      <trkpt lat="44.83719" lon="5.07394">
        <ele>732.18</ele>
        <time>2023-01-12T12:57:48Z</time>
      </trkpt>
      <trkpt lat="44.8372" lon="5.0739">
        <ele>731.7</ele>
        <time>2023-01-12T12:57:59Z</time>
      </trkpt>
      <trkpt lat="44.83722" lon="5.07387">
        <ele>731.7</ele>
        <time>2023-01-12T12:58:03Z</time>
      </trkpt>
      <trkpt lat="44.83735" lon="5.07375">
        <ele>728.34</ele>
        <time>2023-01-12T12:58:20Z</time>
      </trkpt>
      <trkpt lat="44.83739" lon="5.07378">
        <ele>727.86</ele>
        <time>2023-01-12T12:58:37Z</time>
      </trkpt>
      <trkpt lat="44.83739" lon="5.07378">
        <ele>727.37</ele>
        <time>2023-01-12T12:58:43Z</time>
      </trkpt>
      <trkpt lat="44.83743" lon="5.0738">
        <ele>727.37</ele>
        <time>2023-01-12T12:59:52Z</time>
      </trkpt>
      <trkpt lat="44.83749" lon="5.07378">
        <ele>726.41</ele>
        <time>2023-01-12T12:59:58Z</time>
      </trkpt>
      <trkpt lat="44.83755" lon="5.07376">
        <ele>725.45</ele>
        <time>2023-01-12T13:00:15Z</time>
      </trkpt>
      <trkpt lat="44.83767" lon="5.07369">
        <ele>724.97</ele>
        <time>2023-01-12T13:00:33Z</time>
      </trkpt>
      <trkpt lat="44.8377" lon="5.07367">
        <ele>724.97</ele>
        <time>2023-01-12T13:00:36Z</time>
      </trkpt>
      <trkpt lat="44.83773" lon="5.07365">
        <ele>724.97</ele>
        <time>2023-01-12T13:00:39Z</time>
      </trkpt>
      <trkpt lat="44.83789" lon="5.0736">
        <ele>723.53</ele>
        <time>2023-01-12T13:00:52Z</time>
      </trkpt>
      <trkpt lat="44.83814" lon="5.07355">
        <ele>722.09</ele>
        <time>2023-01-12T13:01:12Z</time>
      </trkpt>
      <trkpt lat="44.83829" lon="5.07357">
        <ele>721.13</ele>
        <time>2023-01-12T13:01:24Z</time>
      </trkpt>
      <trkpt lat="44.83848" lon="5.07359">
        <ele>719.2</ele>
        <time>2023-01-12T13:01:40Z</time>
      </trkpt>
      <trkpt lat="44.83865" lon="5.07363">
        <ele>717.28</ele>
        <time>2023-01-12T13:01:56Z</time>
      </trkpt>
      <trkpt lat="44.83878" lon="5.07372">
        <ele>715.84</ele>
        <time>2023-01-12T13:02:13Z</time>
      </trkpt>
      <trkpt lat="44.83882" lon="5.07376">
        <ele>715.36</ele>
        <time>2023-01-12T13:02:18Z</time>
      </trkpt>
      <trkpt lat="44.83893" lon="5.07382">
        <ele>713.44</ele>
        <time>2023-01-12T13:02:32Z</time>
      </trkpt>
      <trkpt lat="44.839" lon="5.07388">
        <ele>712.95</ele>
        <time>2023-01-12T13:02:38Z</time>
      </trkpt>
      <trkpt lat="44.83914" lon="5.074">
        <ele>710.07</ele>
        <time>2023-01-12T13:02:53Z</time>
      </trkpt>
      <trkpt lat="44.83916" lon="5.07401">
        <ele>709.59</ele>
        <time>2023-01-12T13:03:08Z</time>
      </trkpt>
      <trkpt lat="44.83917" lon="5.07398">
        <ele>709.59</ele>
        <time>2023-01-12T13:03:32Z</time>
      </trkpt>
      <trkpt lat="44.83917" lon="5.07401">
        <ele>709.11</ele>
        <time>2023-01-12T13:03:54Z</time>
      </trkpt>
      <trkpt lat="44.83921" lon="5.07405">
        <ele>708.63</ele>
        <time>2023-01-12T13:04:12Z</time>
      </trkpt>
      <trkpt lat="44.83935" lon="5.07418">
        <ele>706.23</ele>
        <time>2023-01-12T13:04:28Z</time>
      </trkpt>
      <trkpt lat="44.83939" lon="5.07423">
        <ele>705.75</ele>
        <time>2023-01-12T13:04:32Z</time>
      </trkpt>
      <trkpt lat="44.83953" lon="5.07443">
        <ele>702.38</ele>
        <time>2023-01-12T13:04:50Z</time>
      </trkpt>
      <trkpt lat="44.83966" lon="5.07455">
        <ele>700.94</ele>
        <time>2023-01-12T13:05:02Z</time>
      </trkpt>
      <trkpt lat="44.83973" lon="5.07458">
        <ele>699.98</ele>
        <time>2023-01-12T13:05:13Z</time>
      </trkpt>
      <trkpt lat="44.83975" lon="5.07464">
        <ele>699.98</ele>
        <time>2023-01-12T13:05:18Z</time>
      </trkpt>
      <trkpt lat="44.83983" lon="5.07468">
        <ele>699.02</ele>
        <time>2023-01-12T13:05:32Z</time>
      </trkpt>
      <trkpt lat="44.83985" lon="5.07465">
        <ele>699.02</ele>
        <time>2023-01-12T13:05:45Z</time>
      </trkpt>
      <trkpt lat="44.8399" lon="5.07451">
        <ele>696.61</ele>
        <time>2023-01-12T13:06:00Z</time>
      </trkpt>
      <trkpt lat="44.83993" lon="5.07442">
        <ele>694.69</ele>
        <time>2023-01-12T13:06:11Z</time>
      </trkpt>
      <trkpt lat="44.83988" lon="5.07422">
        <ele>691.33</ele>
        <time>2023-01-12T13:06:26Z</time>
      </trkpt>
      <trkpt lat="44.83981" lon="5.07402">
        <ele>688.92</ele>
        <time>2023-01-12T13:06:39Z</time>
      </trkpt>
      <trkpt lat="44.83978" lon="5.07393">
        <ele>687.48</ele>
        <time>2023-01-12T13:06:46Z</time>
      </trkpt>
      <trkpt lat="44.83975" lon="5.07386">
        <ele>686.52</ele>
        <time>2023-01-12T13:06:52Z</time>
      </trkpt>
      <trkpt lat="44.83971" lon="5.07358">
        <ele>683.15</ele>
        <time>2023-01-12T13:07:09Z</time>
      </trkpt>
      <trkpt lat="44.83968" lon="5.07337">
        <ele>679.31</ele>
        <time>2023-01-12T13:07:22Z</time>
      </trkpt>
      <trkpt lat="44.83966" lon="5.07315">
        <ele>676.42</ele>
        <time>2023-01-12T13:07:35Z</time>
      </trkpt>
      <trkpt lat="44.83967" lon="5.07297">
        <ele>674.02</ele>
        <time>2023-01-12T13:07:47Z</time>
      </trkpt>
      <trkpt lat="44.8397" lon="5.07275">
        <ele>671.14</ele>
        <time>2023-01-12T13:08:01Z</time>
      </trkpt>
      <trkpt lat="44.83977" lon="5.07255">
        <ele>668.73</ele>
        <time>2023-01-12T13:08:15Z</time>
      </trkpt>
      <trkpt lat="44.8398" lon="5.07244">
        <ele>666.33</ele>
        <time>2023-01-12T13:08:28Z</time>
      </trkpt>
      <trkpt lat="44.83981" lon="5.0724">
        <ele>665.85</ele>
        <time>2023-01-12T13:08:32Z</time>
      </trkpt>
      <trkpt lat="44.83988" lon="5.07214">
        <ele>662.49</ele>
        <time>2023-01-12T13:08:45Z</time>
      </trkpt>
      <trkpt lat="44.83996" lon="5.07204">
        <ele>659.6</ele>
        <time>2023-01-12T13:08:55Z</time>
      </trkpt>
      <trkpt lat="44.84001" lon="5.0719">
        <ele>656.24</ele>
        <time>2023-01-12T13:09:08Z</time>
      </trkpt>
      <trkpt lat="44.84007" lon="5.07181">
        <ele>654.31</ele>
        <time>2023-01-12T13:09:17Z</time>
      </trkpt>
      <trkpt lat="44.84009" lon="5.07175">
        <ele>653.35</ele>
        <time>2023-01-12T13:09:20Z</time>
      </trkpt>
      <trkpt lat="44.84011" lon="5.07149">
        <ele>651.91</ele>
        <time>2023-01-12T13:09:35Z</time>
      </trkpt>
      <trkpt lat="44.84007" lon="5.07142">
        <ele>650.47</ele>
        <time>2023-01-12T13:09:51Z</time>
      </trkpt>
      <trkpt lat="44.84006" lon="5.07138">
        <ele>650.47</ele>
        <time>2023-01-12T13:10:17Z</time>
      </trkpt>
      <trkpt lat="44.84007" lon="5.07137">
        <ele>650.47</ele>
        <time>2023-01-12T13:10:40Z</time>
      </trkpt>
      <trkpt lat="44.84011" lon="5.07133">
        <ele>649.51</ele>
        <time>2023-01-12T13:10:58Z</time>
      </trkpt>
      <trkpt lat="44.84017" lon="5.07126">
        <ele>648.55</ele>
        <time>2023-01-12T13:11:11Z</time>
      </trkpt>
      <trkpt lat="44.84028" lon="5.07114">
        <ele>646.62</ele>
        <time>2023-01-12T13:11:26Z</time>
      </trkpt>
      <trkpt lat="44.84029" lon="5.07112">
        <ele>646.62</ele>
        <time>2023-01-12T13:11:28Z</time>
      </trkpt>
      <trkpt lat="44.84037" lon="5.07099">
        <ele>645.66</ele>
        <time>2023-01-12T13:11:42Z</time>
      </trkpt>
      <trkpt lat="44.84043" lon="5.07088">
        <ele>644.7</ele>
        <time>2023-01-12T13:12:00Z</time>
      </trkpt>
      <trkpt lat="44.84054" lon="5.07075">
        <ele>643.74</ele>
        <time>2023-01-12T13:12:15Z</time>
      </trkpt>
      <trkpt lat="44.84063" lon="5.07069">
        <ele>643.74</ele>
        <time>2023-01-12T13:12:28Z</time>
      </trkpt>
      <trkpt lat="44.84073" lon="5.0706">
        <ele>643.26</ele>
        <time>2023-01-12T13:12:42Z</time>
      </trkpt>
      <trkpt lat="44.84074" lon="5.07058">
        <ele>643.26</ele>
        <time>2023-01-12T13:12:44Z</time>
      </trkpt>
      <trkpt lat="44.84084" lon="5.07044">
        <ele>643.26</ele>
        <time>2023-01-12T13:12:58Z</time>
      </trkpt>
      <trkpt lat="44.84098" lon="5.07031">
        <ele>644.22</ele>
        <time>2023-01-12T13:13:14Z</time>
      </trkpt>
      <trkpt lat="44.84108" lon="5.07023">
        <ele>644.7</ele>
        <time>2023-01-12T13:13:29Z</time>
      </trkpt>
      <trkpt lat="44.84117" lon="5.07013">
        <ele>645.66</ele>
        <time>2023-01-12T13:13:44Z</time>
      </trkpt>
      <trkpt lat="44.84132" lon="5.06998">
        <ele>647.1</ele>
        <time>2023-01-12T13:14:00Z</time>
      </trkpt>
      <trkpt lat="44.84149" lon="5.06982">
        <ele>648.55</ele>
        <time>2023-01-12T13:14:17Z</time>
      </trkpt>
      <trkpt lat="44.84167" lon="5.0697">
        <ele>649.51</ele>
        <time>2023-01-12T13:14:33Z</time>
      </trkpt>
      <trkpt lat="44.84186" lon="5.06958">
        <ele>650.47</ele>
        <time>2023-01-12T13:14:51Z</time>
      </trkpt>
      <trkpt lat="44.84202" lon="5.06948">
        <ele>650.47</ele>
        <time>2023-01-12T13:15:07Z</time>
      </trkpt>
      <trkpt lat="44.84213" lon="5.06939">
        <ele>650.47</ele>
        <time>2023-01-12T13:15:20Z</time>
      </trkpt>
      <trkpt lat="44.84228" lon="5.06937">
        <ele>650.47</ele>
        <time>2023-01-12T13:15:37Z</time>
      </trkpt>
      <trkpt lat="44.84235" lon="5.06934">
        <ele>650.47</ele>
        <time>2023-01-12T13:15:44Z</time>
      </trkpt>
      <trkpt lat="44.84239" lon="5.06933">
        <ele>649.51</ele>
        <time>2023-01-12T13:15:48Z</time>
      </trkpt>
      <trkpt lat="44.84241" lon="5.06932">
        <ele>649.03</ele>
        <time>2023-01-12T13:15:50Z</time>
      </trkpt>
      <trkpt lat="44.84257" lon="5.06933">
        <ele>646.14</ele>
        <time>2023-01-12T13:16:06Z</time>
      </trkpt>
      <trkpt lat="44.84271" lon="5.06934">
        <ele>643.26</ele>
        <time>2023-01-12T13:16:21Z</time>
      </trkpt>
      <trkpt lat="44.84287" lon="5.06932">
        <ele>640.86</ele>
        <time>2023-01-12T13:16:38Z</time>
      </trkpt>
      <trkpt lat="44.84296" lon="5.06931">
        <ele>639.41</ele>
        <time>2023-01-12T13:16:48Z</time>
      </trkpt>
      <trkpt lat="44.84313" lon="5.06929">
        <ele>637.01</ele>
        <time>2023-01-12T13:17:05Z</time>
      </trkpt>
      <trkpt lat="44.84317" lon="5.06929">
        <ele>636.05</ele>
        <time>2023-01-12T13:17:09Z</time>
      </trkpt>
      <trkpt lat="44.84332" lon="5.06928">
        <ele>633.65</ele>
        <time>2023-01-12T13:17:24Z</time>
      </trkpt>
      <trkpt lat="44.84338" lon="5.06929">
        <ele>632.68</ele>
        <time>2023-01-12T13:17:39Z</time>
      </trkpt>
      <trkpt lat="44.84353" lon="5.0693">
        <ele>630.76</ele>
        <time>2023-01-12T13:17:56Z</time>
      </trkpt>
      <trkpt lat="44.84371" lon="5.06928">
        <ele>628.36</ele>
        <time>2023-01-12T13:18:13Z</time>
      </trkpt>
      <trkpt lat="44.84372" lon="5.06928">
        <ele>628.36</ele>
        <time>2023-01-12T13:18:14Z</time>
      </trkpt>
      <trkpt lat="44.8439" lon="5.06924">
        <ele>626.44</ele>
        <time>2023-01-12T13:18:30Z</time>
      </trkpt>
      <trkpt lat="44.84412" lon="5.06919">
        <ele>625.47</ele>
        <time>2023-01-12T13:18:48Z</time>
      </trkpt>
      <trkpt lat="44.84423" lon="5.06919">
        <ele>624.03</ele>
        <time>2023-01-12T13:19:03Z</time>
      </trkpt>
      <trkpt lat="44.84439" lon="5.06921">
        <ele>622.59</ele>
        <time>2023-01-12T13:19:18Z</time>
      </trkpt>
      <trkpt lat="44.84439" lon="5.06922">
        <ele>622.59</ele>
        <time>2023-01-12T13:19:19Z</time>
      </trkpt>
      <trkpt lat="44.84453" lon="5.06924">
        <ele>619.71</ele>
        <time>2023-01-12T13:19:34Z</time>
      </trkpt>
      <trkpt lat="44.84456" lon="5.06925">
        <ele>619.23</ele>
        <time>2023-01-12T13:19:37Z</time>
      </trkpt>
      <trkpt lat="44.84459" lon="5.06925">
        <ele>618.26</ele>
        <time>2023-01-12T13:19:40Z</time>
      </trkpt>
      <trkpt lat="44.84476" lon="5.06927">
        <ele>616.34</ele>
        <time>2023-01-12T13:19:57Z</time>
      </trkpt>
      <trkpt lat="44.84493" lon="5.06929">
        <ele>614.9</ele>
        <time>2023-01-12T13:20:14Z</time>
      </trkpt>
      <trkpt lat="44.84496" lon="5.06929">
        <ele>614.42</ele>
        <time>2023-01-12T13:20:17Z</time>
      </trkpt>
      <trkpt lat="44.84511" lon="5.06933">
        <ele>612.98</ele>
        <time>2023-01-12T13:20:30Z</time>
      </trkpt>
      <trkpt lat="44.84531" lon="5.06931">
        <ele>611.54</ele>
        <time>2023-01-12T13:20:48Z</time>
      </trkpt>
      <trkpt lat="44.84553" lon="5.0693">
        <ele>610.09</ele>
        <time>2023-01-12T13:21:06Z</time>
      </trkpt>
      <trkpt lat="44.8457" lon="5.06928">
        <ele>609.13</ele>
        <time>2023-01-12T13:21:22Z</time>
      </trkpt>
      <trkpt lat="44.84585" lon="5.06925">
        <ele>608.17</ele>
        <time>2023-01-12T13:21:39Z</time>
      </trkpt>
      <trkpt lat="44.846" lon="5.06926">
        <ele>606.25</ele>
        <time>2023-01-12T13:21:57Z</time>
      </trkpt>
      <trkpt lat="44.84607" lon="5.06927">
        <ele>605.29</ele>
        <time>2023-01-12T13:22:04Z</time>
      </trkpt>
      <trkpt lat="44.84624" lon="5.0693">
        <ele>603.36</ele>
        <time>2023-01-12T13:22:20Z</time>
      </trkpt>
      <trkpt lat="44.84633" lon="5.06928">
        <ele>602.4</ele>
        <time>2023-01-12T13:22:38Z</time>
      </trkpt>
      <trkpt lat="44.84632" lon="5.06926">
        <ele>601.92</ele>
        <time>2023-01-12T13:22:50Z</time>
      </trkpt>
      <trkpt lat="44.84633" lon="5.06927">
        <ele>601.92</ele>
        <time>2023-01-12T13:23:11Z</time>
      </trkpt>
      <trkpt lat="44.84638" lon="5.06929">
        <ele>600.96</ele>
        <time>2023-01-12T13:23:27Z</time>
      </trkpt>
      <trkpt lat="44.84649" lon="5.06931">
        <ele>598.56</ele>
        <time>2023-01-12T13:23:40Z</time>
      </trkpt>
      <trkpt lat="44.84656" lon="5.06931">
        <ele>597.6</ele>
        <time>2023-01-12T13:23:46Z</time>
      </trkpt>
      <trkpt lat="44.8467" lon="5.06931">
        <ele>594.71</ele>
        <time>2023-01-12T13:24:00Z</time>
      </trkpt>
      <trkpt lat="44.84687" lon="5.06931">
        <ele>593.27</ele>
        <time>2023-01-12T13:24:14Z</time>
      </trkpt>
      <trkpt lat="44.84706" lon="5.06933">
        <ele>591.83</ele>
        <time>2023-01-12T13:24:30Z</time>
      </trkpt>
      <trkpt lat="44.84725" lon="5.06936">
        <ele>589.91</ele>
        <time>2023-01-12T13:24:45Z</time>
      </trkpt>
      <trkpt lat="44.84738" lon="5.06936">
        <ele>587.98</ele>
        <time>2023-01-12T13:24:58Z</time>
      </trkpt>
      <trkpt lat="44.84757" lon="5.06936">
        <ele>585.58</ele>
        <time>2023-01-12T13:25:14Z</time>
      </trkpt>
      <trkpt lat="44.84778" lon="5.06938">
        <ele>584.14</ele>
        <time>2023-01-12T13:25:30Z</time>
      </trkpt>
      <trkpt lat="44.84783" lon="5.06937">
        <ele>584.14</ele>
        <time>2023-01-12T13:25:34Z</time>
      </trkpt>
      <trkpt lat="44.84805" lon="5.06936">
        <ele>583.18</ele>
        <time>2023-01-12T13:25:51Z</time>
      </trkpt>
      <trkpt lat="44.84808" lon="5.06936">
        <ele>583.18</ele>
        <time>2023-01-12T13:25:54Z</time>
      </trkpt>
      <trkpt lat="44.84812" lon="5.06939">
        <ele>583.18</ele>
        <time>2023-01-12T13:25:57Z</time>
      </trkpt>
      <trkpt lat="44.8483" lon="5.0694">
        <ele>583.18</ele>
        <time>2023-01-12T13:26:14Z</time>
      </trkpt>
      <trkpt lat="44.84843" lon="5.0694">
        <ele>583.18</ele>
        <time>2023-01-12T13:26:30Z</time>
      </trkpt>
      <trkpt lat="44.84845" lon="5.0694">
        <ele>583.18</ele>
        <time>2023-01-12T13:26:46Z</time>
      </trkpt>
      <trkpt lat="44.84849" lon="5.06938">
        <ele>584.14</ele>
        <time>2023-01-12T13:28:51Z</time>
      </trkpt>
      <trkpt lat="44.84859" lon="5.06937">
        <ele>584.14</ele>
        <time>2023-01-12T13:29:07Z</time>
      </trkpt>
      <trkpt lat="44.84865" lon="5.06937">
        <ele>583.18</ele>
        <time>2023-01-12T13:29:13Z</time>
      </trkpt>
      <trkpt lat="44.84871" lon="5.06939">
        <ele>583.18</ele>
        <time>2023-01-12T13:29:19Z</time>
      </trkpt>
      <trkpt lat="44.84883" lon="5.06938">
        <ele>583.18</ele>
        <time>2023-01-12T13:29:32Z</time>
      </trkpt>
      <trkpt lat="44.849" lon="5.06936">
        <ele>584.62</ele>
        <time>2023-01-12T13:29:48Z</time>
      </trkpt>
      <trkpt lat="44.84918" lon="5.06934">
        <ele>585.1</ele>
        <time>2023-01-12T13:30:07Z</time>
      </trkpt>
      <trkpt lat="44.84933" lon="5.06933">
        <ele>585.58</ele>
        <time>2023-01-12T13:30:22Z</time>
      </trkpt>
      <trkpt lat="44.84948" lon="5.06931">
        <ele>583.18</ele>
        <time>2023-01-12T13:30:37Z</time>
      </trkpt>
      <trkpt lat="44.84959" lon="5.06922">
        <ele>580.29</ele>
        <time>2023-01-12T13:30:54Z</time>
      </trkpt>
      <trkpt lat="44.84971" lon="5.06918">
        <ele>578.37</ele>
        <time>2023-01-12T13:31:08Z</time>
      </trkpt>
      <trkpt lat="44.84973" lon="5.06917">
        <ele>577.89</ele>
        <time>2023-01-12T13:31:10Z</time>
      </trkpt>
      <trkpt lat="44.84984" lon="5.0691">
        <ele>575.49</ele>
        <time>2023-01-12T13:31:24Z</time>
      </trkpt>
      <trkpt lat="44.84997" lon="5.06904">
        <ele>573.56</ele>
        <time>2023-01-12T13:31:39Z</time>
      </trkpt>
      <trkpt lat="44.85004" lon="5.06901">
        <ele>572.12</ele>
        <time>2023-01-12T13:31:48Z</time>
      </trkpt>
      <trkpt lat="44.8502" lon="5.06893">
        <ele>569.24</ele>
        <time>2023-01-12T13:32:04Z</time>
      </trkpt>
      <trkpt lat="44.85035" lon="5.06886">
        <ele>567.32</ele>
        <time>2023-01-12T13:32:19Z</time>
      </trkpt>
      <trkpt lat="44.85049" lon="5.06881">
        <ele>565.39</ele>
        <time>2023-01-12T13:32:33Z</time>
      </trkpt>
      <trkpt lat="44.85061" lon="5.06875">
        <ele>564.43</ele>
        <time>2023-01-12T13:32:46Z</time>
      </trkpt>
      <trkpt lat="44.8508" lon="5.06868">
        <ele>562.03</ele>
        <time>2023-01-12T13:33:03Z</time>
      </trkpt>
      <trkpt lat="44.85093" lon="5.06865">
        <ele>560.59</ele>
        <time>2023-01-12T13:33:16Z</time>
      </trkpt>
      <trkpt lat="44.85109" lon="5.06856">
        <ele>559.14</ele>
        <time>2023-01-12T13:33:32Z</time>
      </trkpt>
      <trkpt lat="44.85125" lon="5.06849">
        <ele>558.18</ele>
        <time>2023-01-12T13:33:47Z</time>
      </trkpt>
      <trkpt lat="44.85138" lon="5.06843">
        <ele>556.74</ele>
        <time>2023-01-12T13:34:01Z</time>
      </trkpt>
      <trkpt lat="44.8514" lon="5.06842">
        <ele>556.74</ele>
        <time>2023-01-12T13:34:03Z</time>
      </trkpt>
      <trkpt lat="44.85152" lon="5.06837">
        <ele>555.78</ele>
        <time>2023-01-12T13:34:16Z</time>
      </trkpt>
      <trkpt lat="44.85154" lon="5.06836">
        <ele>555.3</ele>
        <time>2023-01-12T13:34:18Z</time>
      </trkpt>
      <trkpt lat="44.85175" lon="5.0683">
        <ele>554.34</ele>
        <time>2023-01-12T13:34:37Z</time>
      </trkpt>
      <trkpt lat="44.85184" lon="5.06826">
        <ele>553.86</ele>
        <time>2023-01-12T13:34:48Z</time>
      </trkpt>
      <trkpt lat="44.85187" lon="5.06823">
        <ele>553.38</ele>
        <time>2023-01-12T13:34:52Z</time>
      </trkpt>
      <trkpt lat="44.85204" lon="5.06817">
        <ele>553.38</ele>
        <time>2023-01-12T13:35:08Z</time>
      </trkpt>
      <trkpt lat="44.8522" lon="5.06811">
        <ele>552.41</ele>
        <time>2023-01-12T13:35:24Z</time>
      </trkpt>
      <trkpt lat="44.85231" lon="5.06807">
        <ele>551.93</ele>
        <time>2023-01-12T13:35:34Z</time>
      </trkpt>
      <trkpt lat="44.85249" lon="5.06799">
        <ele>550.97</ele>
        <time>2023-01-12T13:35:51Z</time>
      </trkpt>
      <trkpt lat="44.85266" lon="5.06792">
        <ele>549.53</ele>
        <time>2023-01-12T13:36:07Z</time>
      </trkpt>
      <trkpt lat="44.85281" lon="5.06786">
        <ele>549.53</ele>
        <time>2023-01-12T13:36:22Z</time>
      </trkpt>
      <trkpt lat="44.85286" lon="5.06785">
        <ele>549.53</ele>
        <time>2023-01-12T13:36:26Z</time>
      </trkpt>
      <trkpt lat="44.85306" lon="5.06776">
        <ele>549.53</ele>
        <time>2023-01-12T13:36:45Z</time>
      </trkpt>
      <trkpt lat="44.85308" lon="5.06772">
        <ele>549.53</ele>
        <time>2023-01-12T13:36:48Z</time>
      </trkpt>
      <trkpt lat="44.85326" lon="5.06768">
        <ele>550.97</ele>
        <time>2023-01-12T13:37:03Z</time>
      </trkpt>
      <trkpt lat="44.8534" lon="5.06761">
        <ele>550.49</ele>
        <time>2023-01-12T13:37:17Z</time>
      </trkpt>
      <trkpt lat="44.85356" lon="5.06751">
        <ele>550.97</ele>
        <time>2023-01-12T13:37:33Z</time>
      </trkpt>
      <trkpt lat="44.85373" lon="5.06741">
        <ele>551.45</ele>
        <time>2023-01-12T13:37:50Z</time>
      </trkpt>
      <trkpt lat="44.85389" lon="5.06731">
        <ele>552.41</ele>
        <time>2023-01-12T13:38:08Z</time>
      </trkpt>
      <trkpt lat="44.854" lon="5.06727">
        <ele>552.9</ele>
        <time>2023-01-12T13:38:21Z</time>
      </trkpt>
      <trkpt lat="44.85401" lon="5.06725">
        <ele>552.9</ele>
        <time>2023-01-12T13:38:37Z</time>
      </trkpt>
      <trkpt lat="44.85404" lon="5.06724">
        <ele>552.9</ele>
        <time>2023-01-12T13:39:07Z</time>
      </trkpt>
      <trkpt lat="44.8542" lon="5.06715">
        <ele>553.86</ele>
        <time>2023-01-12T13:39:23Z</time>
      </trkpt>
      <trkpt lat="44.85433" lon="5.06705">
        <ele>555.3</ele>
        <time>2023-01-12T13:39:38Z</time>
      </trkpt>
      <trkpt lat="44.85445" lon="5.067">
        <ele>556.26</ele>
        <time>2023-01-12T13:39:53Z</time>
      </trkpt>
      <trkpt lat="44.85458" lon="5.06694">
        <ele>557.7</ele>
        <time>2023-01-12T13:40:10Z</time>
      </trkpt>
      <trkpt lat="44.85468" lon="5.06688">
        <ele>558.66</ele>
        <time>2023-01-12T13:40:23Z</time>
      </trkpt>
      <trkpt lat="44.85479" lon="5.06681">
        <ele>559.62</ele>
        <time>2023-01-12T13:40:38Z</time>
      </trkpt>
      <trkpt lat="44.85488" lon="5.06673">
        <ele>560.11</ele>
        <time>2023-01-12T13:40:52Z</time>
      </trkpt>
      <trkpt lat="44.85497" lon="5.06666">
        <ele>560.59</ele>
        <time>2023-01-12T13:41:04Z</time>
      </trkpt>
      <trkpt lat="44.85513" lon="5.06663">
        <ele>560.59</ele>
        <time>2023-01-12T13:41:20Z</time>
      </trkpt>
      <trkpt lat="44.85533" lon="5.06665">
        <ele>559.62</ele>
        <time>2023-01-12T13:41:39Z</time>
      </trkpt>
      <trkpt lat="44.85539" lon="5.06664">
        <ele>559.62</ele>
        <time>2023-01-12T13:41:45Z</time>
      </trkpt>
      <trkpt lat="44.85543" lon="5.06666">
        <ele>559.62</ele>
        <time>2023-01-12T13:41:48Z</time>
      </trkpt>
      <trkpt lat="44.85545" lon="5.06667">
        <ele>559.14</ele>
        <time>2023-01-12T13:41:50Z</time>
      </trkpt>
      <trkpt lat="44.85554" lon="5.0667">
        <ele>559.14</ele>
        <time>2023-01-12T13:41:59Z</time>
      </trkpt>
      <trkpt lat="44.85557" lon="5.06669">
        <ele>559.14</ele>
        <time>2023-01-12T13:42:02Z</time>
      </trkpt>
      <trkpt lat="44.85563" lon="5.06664">
        <ele>559.14</ele>
        <time>2023-01-12T13:42:08Z</time>
      </trkpt>
      <trkpt lat="44.85569" lon="5.06663">
        <ele>559.14</ele>
        <time>2023-01-12T13:42:13Z</time>
      </trkpt>
      <trkpt lat="44.85574" lon="5.06663">
        <ele>559.14</ele>
        <time>2023-01-12T13:42:17Z</time>
      </trkpt>
      <trkpt lat="44.85578" lon="5.06664">
        <ele>558.66</ele>
        <time>2023-01-12T13:42:21Z</time>
      </trkpt>
      <trkpt lat="44.85597" lon="5.06662">
        <ele>558.66</ele>
        <time>2023-01-12T13:42:40Z</time>
      </trkpt>
      <trkpt lat="44.85609" lon="5.06658">
        <ele>558.66</ele>
        <time>2023-01-12T13:42:54Z</time>
      </trkpt>
      <trkpt lat="44.85622" lon="5.06653">
        <ele>560.11</ele>
        <time>2023-01-12T13:43:08Z</time>
      </trkpt>
      <trkpt lat="44.85642" lon="5.06649">
        <ele>561.55</ele>
        <time>2023-01-12T13:43:23Z</time>
      </trkpt>
      <trkpt lat="44.85657" lon="5.06648">
        <ele>562.51</ele>
        <time>2023-01-12T13:43:37Z</time>
      </trkpt>
      <trkpt lat="44.8566" lon="5.06647">
        <ele>562.51</ele>
        <time>2023-01-12T13:43:40Z</time>
      </trkpt>
      <trkpt lat="44.85674" lon="5.06649">
        <ele>563.47</ele>
        <time>2023-01-12T13:43:54Z</time>
      </trkpt>
      <trkpt lat="44.85692" lon="5.06645">
        <ele>562.99</ele>
        <time>2023-01-12T13:44:11Z</time>
      </trkpt>
      <trkpt lat="44.85697" lon="5.06643">
        <ele>562.03</ele>
        <time>2023-01-12T13:44:18Z</time>
      </trkpt>
      <trkpt lat="44.85707" lon="5.06642">
        <ele>559.62</ele>
        <time>2023-01-12T13:44:32Z</time>
      </trkpt>
      <trkpt lat="44.85714" lon="5.06635">
        <ele>557.7</ele>
        <time>2023-01-12T13:44:47Z</time>
      </trkpt>
      <trkpt lat="44.85726" lon="5.06632">
        <ele>555.3</ele>
        <time>2023-01-12T13:45:02Z</time>
      </trkpt>
      <trkpt lat="44.85739" lon="5.06621">
        <ele>552.9</ele>
        <time>2023-01-12T13:45:19Z</time>
      </trkpt>
      <trkpt lat="44.8575" lon="5.06608">
        <ele>550.97</ele>
        <time>2023-01-12T13:45:35Z</time>
      </trkpt>
      <trkpt lat="44.85762" lon="5.06597">
        <ele>550.01</ele>
        <time>2023-01-12T13:45:48Z</time>
      </trkpt>
      <trkpt lat="44.85776" lon="5.0659">
        <ele>549.05</ele>
        <time>2023-01-12T13:46:04Z</time>
      </trkpt>
      <trkpt lat="44.85788" lon="5.06583">
        <ele>548.57</ele>
        <time>2023-01-12T13:46:17Z</time>
      </trkpt>
      <trkpt lat="44.85804" lon="5.06581">
        <ele>547.13</ele>
        <time>2023-01-12T13:46:32Z</time>
      </trkpt>
      <trkpt lat="44.85818" lon="5.06582">
        <ele>545.2</ele>
        <time>2023-01-12T13:46:46Z</time>
      </trkpt>
      <trkpt lat="44.8583" lon="5.06591">
        <ele>544.24</ele>
        <time>2023-01-12T13:46:59Z</time>
      </trkpt>
      <trkpt lat="44.85833" lon="5.06591">
        <ele>543.76</ele>
        <time>2023-01-12T13:47:03Z</time>
      </trkpt>
      <trkpt lat="44.85849" lon="5.06594">
        <ele>543.28</ele>
        <time>2023-01-12T13:47:21Z</time>
      </trkpt>
      <trkpt lat="44.85865" lon="5.06595">
        <ele>541.84</ele>
        <time>2023-01-12T13:47:37Z</time>
      </trkpt>
      <trkpt lat="44.8588" lon="5.06601">
        <ele>541.36</ele>
        <time>2023-01-12T13:47:53Z</time>
      </trkpt>
      <trkpt lat="44.85896" lon="5.06609">
        <ele>541.36</ele>
        <time>2023-01-12T13:48:09Z</time>
      </trkpt>
      <trkpt lat="44.85905" lon="5.06611">
        <ele>541.36</ele>
        <time>2023-01-12T13:48:19Z</time>
      </trkpt>
      <trkpt lat="44.85916" lon="5.06612">
        <ele>540.88</ele>
        <time>2023-01-12T13:48:36Z</time>
      </trkpt>
      <trkpt lat="44.85924" lon="5.06616">
        <ele>540.88</ele>
        <time>2023-01-12T13:48:50Z</time>
      </trkpt>
      <trkpt lat="44.85933" lon="5.06621">
        <ele>540.88</ele>
        <time>2023-01-12T13:49:02Z</time>
      </trkpt>
      <trkpt lat="44.85946" lon="5.06623">
        <ele>542.32</ele>
        <time>2023-01-12T13:49:16Z</time>
      </trkpt>
      <trkpt lat="44.85955" lon="5.06627">
        <ele>542.32</ele>
        <time>2023-01-12T13:49:29Z</time>
      </trkpt>
      <trkpt lat="44.85966" lon="5.06632">
        <ele>543.28</ele>
        <time>2023-01-12T13:49:46Z</time>
      </trkpt>
      <trkpt lat="44.85971" lon="5.0664">
        <ele>544.24</ele>
        <time>2023-01-12T13:50:01Z</time>
      </trkpt>
      <trkpt lat="44.85981" lon="5.06653">
        <ele>545.69</ele>
        <time>2023-01-12T13:50:15Z</time>
      </trkpt>
      <trkpt lat="44.85983" lon="5.06655">
        <ele>545.69</ele>
        <time>2023-01-12T13:50:18Z</time>
      </trkpt>
      <trkpt lat="44.85994" lon="5.06667">
        <ele>547.61</ele>
        <time>2023-01-12T13:50:32Z</time>
      </trkpt>
      <trkpt lat="44.86006" lon="5.06673">
        <ele>549.05</ele>
        <time>2023-01-12T13:50:47Z</time>
      </trkpt>
      <trkpt lat="44.86011" lon="5.06674">
        <ele>550.01</ele>
        <time>2023-01-12T13:50:52Z</time>
      </trkpt>
      <trkpt lat="44.86022" lon="5.06681">
        <ele>551.93</ele>
        <time>2023-01-12T13:51:05Z</time>
      </trkpt>
      <trkpt lat="44.86031" lon="5.06688">
        <ele>555.78</ele>
        <time>2023-01-12T13:51:20Z</time>
      </trkpt>
      <trkpt lat="44.86039" lon="5.06687">
        <ele>556.74</ele>
        <time>2023-01-12T13:51:34Z</time>
      </trkpt>
      <trkpt lat="44.8605" lon="5.06681">
        <ele>554.34</ele>
        <time>2023-01-12T13:51:49Z</time>
      </trkpt>
      <trkpt lat="44.86058" lon="5.06676">
        <ele>552.9</ele>
        <time>2023-01-12T13:52:04Z</time>
      </trkpt>
      <trkpt lat="44.86068" lon="5.06668">
        <ele>550.97</ele>
        <time>2023-01-12T13:52:15Z</time>
      </trkpt>
      <trkpt lat="44.8608" lon="5.06667">
        <ele>549.53</ele>
        <time>2023-01-12T13:52:28Z</time>
      </trkpt>
      <trkpt lat="44.8609" lon="5.06661">
        <ele>547.13</ele>
        <time>2023-01-12T13:52:39Z</time>
      </trkpt>
      <trkpt lat="44.86094" lon="5.06659">
        <ele>546.65</ele>
        <time>2023-01-12T13:52:43Z</time>
      </trkpt>
      <trkpt lat="44.861" lon="5.06658">
        <ele>546.65</ele>
        <time>2023-01-12T13:52:49Z</time>
      </trkpt>
      <trkpt lat="44.86118" lon="5.06654">
        <ele>544.72</ele>
        <time>2023-01-12T13:53:06Z</time>
      </trkpt>
      <trkpt lat="44.86127" lon="5.06651">
        <ele>542.8</ele>
        <time>2023-01-12T13:53:16Z</time>
      </trkpt>
      <trkpt lat="44.86133" lon="5.06656">
        <ele>540.88</ele>
        <time>2023-01-12T13:53:29Z</time>
      </trkpt>
      <trkpt lat="44.8614" lon="5.06657">
        <ele>537.99</ele>
        <time>2023-01-12T13:53:41Z</time>
      </trkpt>
      <trkpt lat="44.86148" lon="5.06656">
        <ele>535.11</ele>
        <time>2023-01-12T13:53:53Z</time>
      </trkpt>
      <trkpt lat="44.86156" lon="5.06653">
        <ele>532.23</ele>
        <time>2023-01-12T13:54:09Z</time>
      </trkpt>
      <trkpt lat="44.86162" lon="5.06658">
        <ele>529.34</ele>
        <time>2023-01-12T13:54:20Z</time>
      </trkpt>
      <trkpt lat="44.86167" lon="5.06663">
        <ele>527.42</ele>
        <time>2023-01-12T13:54:31Z</time>
      </trkpt>
      <trkpt lat="44.86171" lon="5.06664">
        <ele>525.5</ele>
        <time>2023-01-12T13:54:45Z</time>
      </trkpt>
      <trkpt lat="44.86179" lon="5.06668">
        <ele>522.13</ele>
        <time>2023-01-12T13:55:01Z</time>
      </trkpt>
      <trkpt lat="44.86186" lon="5.06669">
        <ele>519.73</ele>
        <time>2023-01-12T13:55:18Z</time>
      </trkpt>
      <trkpt lat="44.86193" lon="5.06671">
        <ele>516.85</ele>
        <time>2023-01-12T13:55:30Z</time>
      </trkpt>
      <trkpt lat="44.86202" lon="5.06672">
        <ele>513.48</ele>
        <time>2023-01-12T13:55:41Z</time>
      </trkpt>
      <trkpt lat="44.86206" lon="5.06672">
        <ele>513</ele>
        <time>2023-01-12T13:55:45Z</time>
      </trkpt>
      <trkpt lat="44.86221" lon="5.06678">
        <ele>509.64</ele>
        <time>2023-01-12T13:55:59Z</time>
      </trkpt>
      <trkpt lat="44.86235" lon="5.06681">
        <ele>506.27</ele>
        <time>2023-01-12T13:56:12Z</time>
      </trkpt>
      <trkpt lat="44.86248" lon="5.06691">
        <ele>504.83</ele>
        <time>2023-01-12T13:56:25Z</time>
      </trkpt>
      <trkpt lat="44.86248" lon="5.06692">
        <ele>504.83</ele>
        <time>2023-01-12T13:56:26Z</time>
      </trkpt>
      <trkpt lat="44.86265" lon="5.06694">
        <ele>503.39</ele>
        <time>2023-01-12T13:56:41Z</time>
      </trkpt>
      <trkpt lat="44.86277" lon="5.06701">
        <ele>502.91</ele>
        <time>2023-01-12T13:56:55Z</time>
      </trkpt>
      <trkpt lat="44.86283" lon="5.06697">
        <ele>500.98</ele>
        <time>2023-01-12T13:57:20Z</time>
      </trkpt>
      <trkpt lat="44.86294" lon="5.06698">
        <ele>497.62</ele>
        <time>2023-01-12T13:57:33Z</time>
      </trkpt>
      <trkpt lat="44.86302" lon="5.06701">
        <ele>494.74</ele>
        <time>2023-01-12T13:57:48Z</time>
      </trkpt>
      <trkpt lat="44.86305" lon="5.06701">
        <ele>493.77</ele>
        <time>2023-01-12T13:57:50Z</time>
      </trkpt>
      <trkpt lat="44.86317" lon="5.06707">
        <ele>490.41</ele>
        <time>2023-01-12T13:58:04Z</time>
      </trkpt>
      <trkpt lat="44.86326" lon="5.06713">
        <ele>488.49</ele>
        <time>2023-01-12T13:58:17Z</time>
      </trkpt>
      <trkpt lat="44.86332" lon="5.06717">
        <ele>486.08</ele>
        <time>2023-01-12T13:58:31Z</time>
      </trkpt>
      <trkpt lat="44.86337" lon="5.06722">
        <ele>483.2</ele>
        <time>2023-01-12T13:58:42Z</time>
      </trkpt>
      <trkpt lat="44.86342" lon="5.06725">
        <ele>481.76</ele>
        <time>2023-01-12T13:58:55Z</time>
      </trkpt>
      <trkpt lat="44.86349" lon="5.06729">
        <ele>478.39</ele>
        <time>2023-01-12T13:59:08Z</time>
      </trkpt>
      <trkpt lat="44.86357" lon="5.06737">
        <ele>475.51</ele>
        <time>2023-01-12T13:59:20Z</time>
      </trkpt>
      <trkpt lat="44.86368" lon="5.06744">
        <ele>472.63</ele>
        <time>2023-01-12T13:59:33Z</time>
      </trkpt>
      <trkpt lat="44.86384" lon="5.06743">
        <ele>469.26</ele>
        <time>2023-01-12T13:59:48Z</time>
      </trkpt>
      <trkpt lat="44.86393" lon="5.06748">
        <ele>467.82</ele>
        <time>2023-01-12T14:00:02Z</time>
      </trkpt>
      <trkpt lat="44.86404" lon="5.06753">
        <ele>467.34</ele>
        <time>2023-01-12T14:00:15Z</time>
      </trkpt>
      <trkpt lat="44.86409" lon="5.06757">
        <ele>468.78</ele>
        <time>2023-01-12T14:03:00Z</time>
      </trkpt>
      <trkpt lat="44.86416" lon="5.06756">
        <ele>469.26</ele>
        <time>2023-01-12T14:03:16Z</time>
      </trkpt>
      <trkpt lat="44.86427" lon="5.06751">
        <ele>470.22</ele>
        <time>2023-01-12T14:03:32Z</time>
      </trkpt>
      <trkpt lat="44.86435" lon="5.06747">
        <ele>471.18</ele>
        <time>2023-01-12T14:03:47Z</time>
      </trkpt>
      <trkpt lat="44.86438" lon="5.06746">
        <ele>471.66</ele>
        <time>2023-01-12T14:05:32Z</time>
      </trkpt>
      <trkpt lat="44.86448" lon="5.06744">
        <ele>472.14</ele>
        <time>2023-01-12T14:05:46Z</time>
      </trkpt>
      <trkpt lat="44.86464" lon="5.06745">
        <ele>472.63</ele>
        <time>2023-01-12T14:06:01Z</time>
      </trkpt>
      <trkpt lat="44.86485" lon="5.06749">
        <ele>473.59</ele>
        <time>2023-01-12T14:06:19Z</time>
      </trkpt>
      <trkpt lat="44.86489" lon="5.06749">
        <ele>473.59</ele>
        <time>2023-01-12T14:06:22Z</time>
      </trkpt>
      <trkpt lat="44.86491" lon="5.06749">
        <ele>474.07</ele>
        <time>2023-01-12T14:06:24Z</time>
      </trkpt>
      <trkpt lat="44.86497" lon="5.0675">
        <ele>474.07</ele>
        <time>2023-01-12T14:06:29Z</time>
      </trkpt>
      <trkpt lat="44.86515" lon="5.06755">
        <ele>474.55</ele>
        <time>2023-01-12T14:06:44Z</time>
      </trkpt>
      <trkpt lat="44.8653" lon="5.06754">
        <ele>474.55</ele>
        <time>2023-01-12T14:06:57Z</time>
      </trkpt>
      <trkpt lat="44.86535" lon="5.06752">
        <ele>474.55</ele>
        <time>2023-01-12T14:07:01Z</time>
      </trkpt>
      <trkpt lat="44.86553" lon="5.06754">
        <ele>474.55</ele>
        <time>2023-01-12T14:07:17Z</time>
      </trkpt>
      <trkpt lat="44.86573" lon="5.06757">
        <ele>474.55</ele>
        <time>2023-01-12T14:07:34Z</time>
      </trkpt>
      <trkpt lat="44.86589" lon="5.0676">
        <ele>473.11</ele>
        <time>2023-01-12T14:07:47Z</time>
      </trkpt>
      <trkpt lat="44.86596" lon="5.06756">
        <ele>472.63</ele>
        <time>2023-01-12T14:07:54Z</time>
      </trkpt>
      <trkpt lat="44.86603" lon="5.06753">
        <ele>471.66</ele>
        <time>2023-01-12T14:08:02Z</time>
      </trkpt>
      <trkpt lat="44.86623" lon="5.06743">
        <ele>469.26</ele>
        <time>2023-01-12T14:08:20Z</time>
      </trkpt>
      <trkpt lat="44.86643" lon="5.06733">
        <ele>468.3</ele>
        <time>2023-01-12T14:08:38Z</time>
      </trkpt>
      <trkpt lat="44.86645" lon="5.06732">
        <ele>467.82</ele>
        <time>2023-01-12T14:08:40Z</time>
      </trkpt>
      <trkpt lat="44.86647" lon="5.0673">
        <ele>467.82</ele>
        <time>2023-01-12T14:08:42Z</time>
      </trkpt>
      <trkpt lat="44.86653" lon="5.06729">
        <ele>467.82</ele>
        <time>2023-01-12T14:08:47Z</time>
      </trkpt>
      <trkpt lat="44.8667" lon="5.06717">
        <ele>467.82</ele>
        <time>2023-01-12T14:09:03Z</time>
      </trkpt>
      <trkpt lat="44.86689" lon="5.06709">
        <ele>467.34</ele>
        <time>2023-01-12T14:09:20Z</time>
      </trkpt>
      <trkpt lat="44.86705" lon="5.06707">
        <ele>467.34</ele>
        <time>2023-01-12T14:09:35Z</time>
      </trkpt>
      <trkpt lat="44.86719" lon="5.06707">
        <ele>467.34</ele>
        <time>2023-01-12T14:09:50Z</time>
      </trkpt>
      <trkpt lat="44.86725" lon="5.06707">
        <ele>467.34</ele>
        <time>2023-01-12T14:10:05Z</time>
      </trkpt>
      <trkpt lat="44.86732" lon="5.0671">
        <ele>468.3</ele>
        <time>2023-01-12T14:10:17Z</time>
      </trkpt>
      <trkpt lat="44.86734" lon="5.0671">
        <ele>468.3</ele>
        <time>2023-01-12T14:10:19Z</time>
      </trkpt>
      <trkpt lat="44.8675" lon="5.06711">
        <ele>469.74</ele>
        <time>2023-01-12T14:10:34Z</time>
      </trkpt>
      <trkpt lat="44.86766" lon="5.06712">
        <ele>471.18</ele>
        <time>2023-01-12T14:10:48Z</time>
      </trkpt>
      <trkpt lat="44.86768" lon="5.06712">
        <ele>471.18</ele>
        <time>2023-01-12T14:10:50Z</time>
      </trkpt>
      <trkpt lat="44.86777" lon="5.06712">
        <ele>472.14</ele>
        <time>2023-01-12T14:11:24Z</time>
      </trkpt>
      <trkpt lat="44.86784" lon="5.06715">
        <ele>472.14</ele>
        <time>2023-01-12T14:11:31Z</time>
      </trkpt>
      <trkpt lat="44.868" lon="5.06716">
        <ele>474.07</ele>
        <time>2023-01-12T14:11:46Z</time>
      </trkpt>
      <trkpt lat="44.86815" lon="5.06718">
        <ele>475.03</ele>
        <time>2023-01-12T14:11:59Z</time>
      </trkpt>
      <trkpt lat="44.86822" lon="5.06719">
        <ele>475.03</ele>
        <time>2023-01-12T14:12:06Z</time>
      </trkpt>
      <trkpt lat="44.8684" lon="5.06726">
        <ele>474.55</ele>
        <time>2023-01-12T14:12:22Z</time>
      </trkpt>
      <trkpt lat="44.86846" lon="5.06724">
        <ele>474.55</ele>
        <time>2023-01-12T14:12:29Z</time>
      </trkpt>
      <trkpt lat="44.86857" lon="5.0672">
        <ele>472.63</ele>
        <time>2023-01-12T14:12:39Z</time>
      </trkpt>
      <trkpt lat="44.86874" lon="5.06724">
        <ele>471.18</ele>
        <time>2023-01-12T14:12:55Z</time>
      </trkpt>
      <trkpt lat="44.8689" lon="5.06733">
        <ele>469.74</ele>
        <time>2023-01-12T14:13:09Z</time>
      </trkpt>
      <trkpt lat="44.86911" lon="5.06745">
        <ele>468.3</ele>
        <time>2023-01-12T14:13:26Z</time>
      </trkpt>
      <trkpt lat="44.86928" lon="5.06757">
        <ele>467.82</ele>
        <time>2023-01-12T14:13:41Z</time>
      </trkpt>
      <trkpt lat="44.86947" lon="5.06764">
        <ele>466.86</ele>
        <time>2023-01-12T14:13:56Z</time>
      </trkpt>
      <trkpt lat="44.8697" lon="5.06774">
        <ele>465.9</ele>
        <time>2023-01-12T14:14:15Z</time>
      </trkpt>
      <trkpt lat="44.86987" lon="5.06782">
        <ele>464.93</ele>
        <time>2023-01-12T14:14:29Z</time>
      </trkpt>
      <trkpt lat="44.87006" lon="5.06792">
        <ele>463.97</ele>
        <time>2023-01-12T14:14:46Z</time>
      </trkpt>
      <trkpt lat="44.87024" lon="5.068">
        <ele>463.01</ele>
        <time>2023-01-12T14:15:02Z</time>
      </trkpt>
      <trkpt lat="44.87025" lon="5.06801">
        <ele>462.53</ele>
        <time>2023-01-12T14:15:03Z</time>
      </trkpt>
      <trkpt lat="44.87047" lon="5.06813">
        <ele>460.13</ele>
        <time>2023-01-12T14:15:20Z</time>
      </trkpt>
      <trkpt lat="44.87065" lon="5.06826">
        <ele>458.69</ele>
        <time>2023-01-12T14:15:37Z</time>
      </trkpt>
      <trkpt lat="44.87084" lon="5.06845">
        <ele>458.69</ele>
        <time>2023-01-12T14:15:54Z</time>
      </trkpt>
      <trkpt lat="44.87086" lon="5.06847">
        <ele>458.69</ele>
        <time>2023-01-12T14:15:56Z</time>
      </trkpt>
      <trkpt lat="44.87099" lon="5.06852">
        <ele>458.69</ele>
        <time>2023-01-12T14:16:11Z</time>
      </trkpt>
      <trkpt lat="44.871" lon="5.06852">
        <ele>458.69</ele>
        <time>2023-01-12T14:16:14Z</time>
      </trkpt>
      <trkpt lat="44.87103" lon="5.06852">
        <ele>458.69</ele>
        <time>2023-01-12T14:16:17Z</time>
      </trkpt>
      <trkpt lat="44.87113" lon="5.06856">
        <ele>460.13</ele>
        <time>2023-01-12T14:16:27Z</time>
      </trkpt>
      <trkpt lat="44.87128" lon="5.0686">
        <ele>460.13</ele>
        <time>2023-01-12T14:16:40Z</time>
      </trkpt>
      <trkpt lat="44.87143" lon="5.06875">
        <ele>460.13</ele>
        <time>2023-01-12T14:16:55Z</time>
      </trkpt>
      <trkpt lat="44.87149" lon="5.0688">
        <ele>458.69</ele>
        <time>2023-01-12T14:17:01Z</time>
      </trkpt>
      <trkpt lat="44.87166" lon="5.06886">
        <ele>458.69</ele>
        <time>2023-01-12T14:17:17Z</time>
      </trkpt>
      <trkpt lat="44.87183" lon="5.06895">
        <ele>461.09</ele>
        <time>2023-01-12T14:17:32Z</time>
      </trkpt>
      <trkpt lat="44.87189" lon="5.06906">
        <ele>462.53</ele>
        <time>2023-01-12T14:17:45Z</time>
      </trkpt>
      <trkpt lat="44.87193" lon="5.06907">
        <ele>463.97</ele>
        <time>2023-01-12T14:18:01Z</time>
      </trkpt>
      <trkpt lat="44.87202" lon="5.06911">
        <ele>467.34</ele>
        <time>2023-01-12T14:18:18Z</time>
      </trkpt>
      <trkpt lat="44.87211" lon="5.0691">
        <ele>469.74</ele>
        <time>2023-01-12T14:18:33Z</time>
      </trkpt>
      <trkpt lat="44.87221" lon="5.06913">
        <ele>471.66</ele>
        <time>2023-01-12T14:18:47Z</time>
      </trkpt>
      <trkpt lat="44.87231" lon="5.06923">
        <ele>474.07</ele>
        <time>2023-01-12T14:19:03Z</time>
      </trkpt>
      <trkpt lat="44.8724" lon="5.0693">
        <ele>475.99</ele>
        <time>2023-01-12T14:19:16Z</time>
      </trkpt>
      <trkpt lat="44.8725" lon="5.06937">
        <ele>479.35</ele>
        <time>2023-01-12T14:19:30Z</time>
      </trkpt>
      <trkpt lat="44.87257" lon="5.06941">
        <ele>481.28</ele>
        <time>2023-01-12T14:19:42Z</time>
      </trkpt>
      <trkpt lat="44.87265" lon="5.0694">
        <ele>484.64</ele>
        <time>2023-01-12T14:19:55Z</time>
      </trkpt>
      <trkpt lat="44.87273" lon="5.06941">
        <ele>487.05</ele>
        <time>2023-01-12T14:20:10Z</time>
      </trkpt>
      <trkpt lat="44.87279" lon="5.06942">
        <ele>489.93</ele>
        <time>2023-01-12T14:20:23Z</time>
      </trkpt>
      <trkpt lat="44.87288" lon="5.06944">
        <ele>492.81</ele>
        <time>2023-01-12T14:20:38Z</time>
      </trkpt>
      <trkpt lat="44.87296" lon="5.06946">
        <ele>495.22</ele>
        <time>2023-01-12T14:20:51Z</time>
      </trkpt>
      <trkpt lat="44.87302" lon="5.06951">
        <ele>497.62</ele>
        <time>2023-01-12T14:21:03Z</time>
      </trkpt>
      <trkpt lat="44.87313" lon="5.06958">
        <ele>500.5</ele>
        <time>2023-01-12T14:21:20Z</time>
      </trkpt>
      <trkpt lat="44.87324" lon="5.06968">
        <ele>501.46</ele>
        <time>2023-01-12T14:21:35Z</time>
      </trkpt>
      <trkpt lat="44.87336" lon="5.06969">
        <ele>502.91</ele>
        <time>2023-01-12T14:21:50Z</time>
      </trkpt>
      <trkpt lat="44.87347" lon="5.06974">
        <ele>503.87</ele>
        <time>2023-01-12T14:22:04Z</time>
      </trkpt>
      <trkpt lat="44.87354" lon="5.06975">
        <ele>504.83</ele>
        <time>2023-01-12T14:22:11Z</time>
      </trkpt>
      <trkpt lat="44.87355" lon="5.06978">
        <ele>504.83</ele>
        <time>2023-01-12T14:22:14Z</time>
      </trkpt>
      <trkpt lat="44.87368" lon="5.06985">
        <ele>507.23</ele>
        <time>2023-01-12T14:22:29Z</time>
      </trkpt>
      <trkpt lat="44.8738" lon="5.06992">
        <ele>509.64</ele>
        <time>2023-01-12T14:22:44Z</time>
      </trkpt>
      <trkpt lat="44.87383" lon="5.06996">
        <ele>510.12</ele>
        <time>2023-01-12T14:22:47Z</time>
      </trkpt>
      <trkpt lat="44.87395" lon="5.07001">
        <ele>512.04</ele>
        <time>2023-01-12T14:23:01Z</time>
      </trkpt>
      <trkpt lat="44.87406" lon="5.06998">
        <ele>513.48</ele>
        <time>2023-01-12T14:23:15Z</time>
      </trkpt>
      <trkpt lat="44.87419" lon="5.07002">
        <ele>515.4</ele>
        <time>2023-01-12T14:23:28Z</time>
      </trkpt>
      <trkpt lat="44.87433" lon="5.07004">
        <ele>516.37</ele>
        <time>2023-01-12T14:23:42Z</time>
      </trkpt>
      <trkpt lat="44.87447" lon="5.0701">
        <ele>518.77</ele>
        <time>2023-01-12T14:23:57Z</time>
      </trkpt>
      <trkpt lat="44.87457" lon="5.07015">
        <ele>520.21</ele>
        <time>2023-01-12T14:24:09Z</time>
      </trkpt>
      <trkpt lat="44.87459" lon="5.07014">
        <ele>521.17</ele>
        <time>2023-01-12T14:24:11Z</time>
      </trkpt>
      <trkpt lat="44.87468" lon="5.07012">
        <ele>521.17</ele>
        <time>2023-01-12T14:24:19Z</time>
      </trkpt>
      <trkpt lat="44.87478" lon="5.07018">
        <ele>523.58</ele>
        <time>2023-01-12T14:24:32Z</time>
      </trkpt>
      <trkpt lat="44.8749" lon="5.07025">
        <ele>525.5</ele>
        <time>2023-01-12T14:24:45Z</time>
      </trkpt>
      <trkpt lat="44.87499" lon="5.07032">
        <ele>526.94</ele>
        <time>2023-01-12T14:24:57Z</time>
      </trkpt>
      <trkpt lat="44.87509" lon="5.07041">
        <ele>526.94</ele>
        <time>2023-01-12T14:25:11Z</time>
      </trkpt>
      <trkpt lat="44.87522" lon="5.07053">
        <ele>527.42</ele>
        <time>2023-01-12T14:25:26Z</time>
      </trkpt>
      <trkpt lat="44.87531" lon="5.07061">
        <ele>527.9</ele>
        <time>2023-01-12T14:25:37Z</time>
      </trkpt>
      <trkpt lat="44.87533" lon="5.07062">
        <ele>527.9</ele>
        <time>2023-01-12T14:25:39Z</time>
      </trkpt>
      <trkpt lat="44.87535" lon="5.07063">
        <ele>527.9</ele>
        <time>2023-01-12T14:25:41Z</time>
      </trkpt>
      <trkpt lat="44.87549" lon="5.07079">
        <ele>527.9</ele>
        <time>2023-01-12T14:25:56Z</time>
      </trkpt>
      <trkpt lat="44.87565" lon="5.07091">
        <ele>529.34</ele>
        <time>2023-01-12T14:26:11Z</time>
      </trkpt>
      <trkpt lat="44.8758" lon="5.07099">
        <ele>530.79</ele>
        <time>2023-01-12T14:26:27Z</time>
      </trkpt>
      <trkpt lat="44.87597" lon="5.07112">
        <ele>531.27</ele>
        <time>2023-01-12T14:26:43Z</time>
      </trkpt>
      <trkpt lat="44.87599" lon="5.07118">
        <ele>531.27</ele>
        <time>2023-01-12T14:26:56Z</time>
      </trkpt>
      <trkpt lat="44.87606" lon="5.07118">
        <ele>531.27</ele>
        <time>2023-01-12T14:27:13Z</time>
      </trkpt>
      <trkpt lat="44.87616" lon="5.07123">
        <ele>529.34</ele>
        <time>2023-01-12T14:28:58Z</time>
      </trkpt>
      <trkpt lat="44.87626" lon="5.07136">
        <ele>527.42</ele>
        <time>2023-01-12T14:29:12Z</time>
      </trkpt>
      <trkpt lat="44.87635" lon="5.07151">
        <ele>526.94</ele>
        <time>2023-01-12T14:29:28Z</time>
      </trkpt>
      <trkpt lat="44.8763" lon="5.07145">
        <ele>525.98</ele>
        <time>2023-01-12T14:37:18Z</time>
      </trkpt>
      <trkpt lat="44.87629" lon="5.07145">
        <ele>525.98</ele>
        <time>2023-01-12T14:37:36Z</time>
      </trkpt>
      <trkpt lat="44.87628" lon="5.07144">
        <ele>525.98</ele>
        <time>2023-01-12T14:37:55Z</time>
      </trkpt>
      <trkpt lat="44.87623" lon="5.07145">
        <ele>523.58</ele>
        <time>2023-01-12T14:38:14Z</time>
      </trkpt>
      <trkpt lat="44.87617" lon="5.07144">
        <ele>521.17</ele>
        <time>2023-01-12T14:38:24Z</time>
      </trkpt>
      <trkpt lat="44.8761" lon="5.07143">
        <ele>517.33</ele>
        <time>2023-01-12T14:38:36Z</time>
      </trkpt>
      <trkpt lat="44.87601" lon="5.07146">
        <ele>513.96</ele>
        <time>2023-01-12T14:38:48Z</time>
      </trkpt>
      <trkpt lat="44.87598" lon="5.07149">
        <ele>513</ele>
        <time>2023-01-12T14:38:52Z</time>
      </trkpt>
      <trkpt lat="44.87592" lon="5.07152">
        <ele>509.64</ele>
        <time>2023-01-12T14:39:01Z</time>
      </trkpt>
      <trkpt lat="44.87588" lon="5.07157">
        <ele>507.23</ele>
        <time>2023-01-12T14:39:13Z</time>
      </trkpt>
      <trkpt lat="44.87582" lon="5.07165">
        <ele>503.39</ele>
        <time>2023-01-12T14:39:26Z</time>
      </trkpt>
      <trkpt lat="44.87575" lon="5.07173">
        <ele>500.02</ele>
        <time>2023-01-12T14:39:37Z</time>
      </trkpt>
      <trkpt lat="44.87569" lon="5.07179">
        <ele>497.14</ele>
        <time>2023-01-12T14:39:47Z</time>
      </trkpt>
      <trkpt lat="44.87561" lon="5.07187">
        <ele>493.77</ele>
        <time>2023-01-12T14:39:58Z</time>
      </trkpt>
      <trkpt lat="44.87555" lon="5.07195">
        <ele>490.41</ele>
        <time>2023-01-12T14:40:10Z</time>
      </trkpt>
      <trkpt lat="44.87548" lon="5.07203">
        <ele>487.05</ele>
        <time>2023-01-12T14:40:24Z</time>
      </trkpt>
      <trkpt lat="44.87541" lon="5.07212">
        <ele>483.68</ele>
        <time>2023-01-12T14:40:36Z</time>
      </trkpt>
      <trkpt lat="44.87532" lon="5.07221">
        <ele>480.32</ele>
        <time>2023-01-12T14:40:49Z</time>
      </trkpt>
      <trkpt lat="44.87526" lon="5.07227">
        <ele>476.95</ele>
        <time>2023-01-12T14:41:00Z</time>
      </trkpt>
      <trkpt lat="44.87518" lon="5.07233">
        <ele>473.59</ele>
        <time>2023-01-12T14:41:13Z</time>
      </trkpt>
      <trkpt lat="44.8751" lon="5.07237">
        <ele>470.7</ele>
        <time>2023-01-12T14:41:27Z</time>
      </trkpt>
      <trkpt lat="44.87502" lon="5.0724">
        <ele>467.34</ele>
        <time>2023-01-12T14:41:39Z</time>
      </trkpt>
      <trkpt lat="44.87496" lon="5.07243">
        <ele>465.42</ele>
        <time>2023-01-12T14:41:54Z</time>
      </trkpt>
      <trkpt lat="44.87493" lon="5.07246">
        <ele>463.49</ele>
        <time>2023-01-12T14:42:09Z</time>
      </trkpt>
      <trkpt lat="44.87489" lon="5.07251">
        <ele>460.61</ele>
        <time>2023-01-12T14:42:19Z</time>
      </trkpt>
      <trkpt lat="44.87487" lon="5.07251">
        <ele>459.65</ele>
        <time>2023-01-12T14:42:21Z</time>
      </trkpt>
      <trkpt lat="44.87477" lon="5.07253">
        <ele>456.76</ele>
        <time>2023-01-12T14:42:32Z</time>
      </trkpt>
      <trkpt lat="44.87467" lon="5.07259">
        <ele>453.4</ele>
        <time>2023-01-12T14:42:43Z</time>
      </trkpt>
      <trkpt lat="44.8746" lon="5.07267">
        <ele>450.52</ele>
        <time>2023-01-12T14:42:55Z</time>
      </trkpt>
      <trkpt lat="44.87451" lon="5.07278">
        <ele>447.15</ele>
        <time>2023-01-12T14:43:06Z</time>
      </trkpt>
      <trkpt lat="44.87442" lon="5.07287">
        <ele>443.31</ele>
        <time>2023-01-12T14:43:18Z</time>
      </trkpt>
      <trkpt lat="44.87431" lon="5.07297">
        <ele>439.94</ele>
        <time>2023-01-12T14:43:32Z</time>
      </trkpt>
      <trkpt lat="44.87423" lon="5.07306">
        <ele>436.58</ele>
        <time>2023-01-12T14:43:43Z</time>
      </trkpt>
      <trkpt lat="44.87413" lon="5.07317">
        <ele>433.69</ele>
        <time>2023-01-12T14:43:56Z</time>
      </trkpt>
      <trkpt lat="44.87408" lon="5.0732">
        <ele>432.73</ele>
        <time>2023-01-12T14:44:00Z</time>
      </trkpt>
      <trkpt lat="44.87403" lon="5.0732">
        <ele>432.73</ele>
        <time>2023-01-12T14:44:05Z</time>
      </trkpt>
      <trkpt lat="44.87397" lon="5.07322">
        <ele>432.73</ele>
        <time>2023-01-12T14:44:10Z</time>
      </trkpt>
      <trkpt lat="44.87386" lon="5.07323">
        <ele>430.33</ele>
        <time>2023-01-12T14:44:21Z</time>
      </trkpt>
      <trkpt lat="44.87372" lon="5.07329">
        <ele>426</ele>
        <time>2023-01-12T14:44:33Z</time>
      </trkpt>
      <trkpt lat="44.87365" lon="5.07337">
        <ele>423.12</ele>
        <time>2023-01-12T14:44:43Z</time>
      </trkpt>
      <trkpt lat="44.87359" lon="5.07341">
        <ele>420.23</ele>
        <time>2023-01-12T14:44:51Z</time>
      </trkpt>
      <trkpt lat="44.87354" lon="5.07345">
        <ele>416.87</ele>
        <time>2023-01-12T14:44:59Z</time>
      </trkpt>
      <trkpt lat="44.87348" lon="5.0735">
        <ele>413.5</ele>
        <time>2023-01-12T14:45:07Z</time>
      </trkpt>
      <trkpt lat="44.87349" lon="5.07358">
        <ele>410.14</ele>
        <time>2023-01-12T14:45:18Z</time>
      </trkpt>
      <trkpt lat="44.87353" lon="5.07368">
        <ele>406.77</ele>
        <time>2023-01-12T14:45:27Z</time>
      </trkpt>
      <trkpt lat="44.87353" lon="5.07369">
        <ele>405.81</ele>
        <time>2023-01-12T14:45:29Z</time>
      </trkpt>
      <trkpt lat="44.87354" lon="5.07372">
        <ele>404.85</ele>
        <time>2023-01-12T14:45:32Z</time>
      </trkpt>
      <trkpt lat="44.87354" lon="5.07376">
        <ele>403.89</ele>
        <time>2023-01-12T14:45:34Z</time>
      </trkpt>
      <trkpt lat="44.87354" lon="5.07379">
        <ele>403.41</ele>
        <time>2023-01-12T14:45:36Z</time>
      </trkpt>
      <trkpt lat="44.87345" lon="5.07384">
        <ele>401.01</ele>
        <time>2023-01-12T14:45:49Z</time>
      </trkpt>
      <trkpt lat="44.8734" lon="5.07388">
        <ele>398.12</ele>
        <time>2023-01-12T14:45:56Z</time>
      </trkpt>
      <trkpt lat="44.87338" lon="5.07397">
        <ele>394.76</ele>
        <time>2023-01-12T14:46:06Z</time>
      </trkpt>
      <trkpt lat="44.87336" lon="5.07406">
        <ele>391.87</ele>
        <time>2023-01-12T14:46:16Z</time>
      </trkpt>
      <trkpt lat="44.87335" lon="5.07416">
        <ele>388.51</ele>
        <time>2023-01-12T14:46:24Z</time>
      </trkpt>
      <trkpt lat="44.87336" lon="5.07421">
        <ele>387.55</ele>
        <time>2023-01-12T14:46:28Z</time>
      </trkpt>
      <trkpt lat="44.87335" lon="5.07427">
        <ele>385.63</ele>
        <time>2023-01-12T14:46:34Z</time>
      </trkpt>
      <trkpt lat="44.87334" lon="5.07428">
        <ele>385.63</ele>
        <time>2023-01-12T14:46:35Z</time>
      </trkpt>
      <trkpt lat="44.87327" lon="5.07438">
        <ele>382.26</ele>
        <time>2023-01-12T14:46:45Z</time>
      </trkpt>
      <trkpt lat="44.87321" lon="5.07443">
        <ele>378.9</ele>
        <time>2023-01-12T14:46:58Z</time>
      </trkpt>
      <trkpt lat="44.87325" lon="5.07453">
        <ele>376.01</ele>
        <time>2023-01-12T14:47:09Z</time>
      </trkpt>
      <trkpt lat="44.87329" lon="5.0746">
        <ele>374.57</ele>
        <time>2023-01-12T14:47:16Z</time>
      </trkpt>
      <trkpt lat="44.87333" lon="5.0748">
        <ele>370.24</ele>
        <time>2023-01-12T14:47:30Z</time>
      </trkpt>
      <trkpt lat="44.87336" lon="5.0749">
        <ele>368.32</ele>
        <time>2023-01-12T14:47:38Z</time>
      </trkpt>
      <trkpt lat="44.87341" lon="5.07508">
        <ele>364.96</ele>
        <time>2023-01-12T14:47:51Z</time>
      </trkpt>
      <trkpt lat="44.87345" lon="5.07529">
        <ele>361.59</ele>
        <time>2023-01-12T14:48:03Z</time>
      </trkpt>
      <trkpt lat="44.8735" lon="5.07549">
        <ele>358.23</ele>
        <time>2023-01-12T14:48:16Z</time>
      </trkpt>
      <trkpt lat="44.87355" lon="5.07578">
        <ele>355.34</ele>
        <time>2023-01-12T14:48:33Z</time>
      </trkpt>
      <trkpt lat="44.87358" lon="5.07605">
        <ele>354.86</ele>
        <time>2023-01-12T14:48:50Z</time>
      </trkpt>
      <trkpt lat="44.87359" lon="5.07606">
        <ele>354.86</ele>
        <time>2023-01-12T14:48:51Z</time>
      </trkpt>
      <trkpt lat="44.87361" lon="5.07614">
        <ele>353.9</ele>
        <time>2023-01-12T14:49:06Z</time>
      </trkpt>
      <trkpt lat="44.87362" lon="5.0762">
        <ele>353.9</ele>
        <time>2023-01-12T14:49:37Z</time>
      </trkpt>
      <trkpt lat="44.87365" lon="5.07625">
        <ele>353.9</ele>
        <time>2023-01-12T14:51:11Z</time>
      </trkpt>
      <trkpt lat="44.87367" lon="5.07632">
        <ele>353.9</ele>
        <time>2023-01-12T14:51:26Z</time>
      </trkpt>
      <trkpt lat="44.87368" lon="5.07641">
        <ele>353.9</ele>
        <time>2023-01-12T14:51:40Z</time>
      </trkpt>
      <trkpt lat="44.87369" lon="5.07647">
        <ele>355.34</ele>
        <time>2023-01-12T14:51:51Z</time>
      </trkpt>
      <trkpt lat="44.87368" lon="5.07649">
        <ele>355.83</ele>
        <time>2023-01-12T14:55:47Z</time>
      </trkpt>
      <trkpt lat="44.87365" lon="5.07656">
        <ele>355.83</ele>
        <time>2023-01-12T14:55:56Z</time>
      </trkpt>
      <trkpt lat="44.87358" lon="5.07675">
        <ele>357.27</ele>
        <time>2023-01-12T14:56:11Z</time>
      </trkpt>
      <trkpt lat="44.87351" lon="5.07691">
        <ele>358.23</ele>
        <time>2023-01-12T14:56:26Z</time>
      </trkpt>
      <trkpt lat="44.87349" lon="5.07695">
        <ele>358.71</ele>
        <time>2023-01-12T14:56:30Z</time>
      </trkpt>
      <trkpt lat="44.87343" lon="5.07701">
        <ele>359.19</ele>
        <time>2023-01-12T14:56:37Z</time>
      </trkpt>
      <trkpt lat="44.87333" lon="5.07708">
        <ele>360.63</ele>
        <time>2023-01-12T14:56:51Z</time>
      </trkpt>
      <trkpt lat="44.8733" lon="5.0771">
        <ele>361.11</ele>
        <time>2023-01-12T14:56:54Z</time>
      </trkpt>
      <trkpt lat="44.87328" lon="5.07712">
        <ele>361.11</ele>
        <time>2023-01-12T14:56:56Z</time>
      </trkpt>
      <trkpt lat="44.87322" lon="5.07722">
        <ele>361.59</ele>
        <time>2023-01-12T14:57:08Z</time>
      </trkpt>
      <trkpt lat="44.8732" lon="5.07736">
        <ele>362.07</ele>
        <time>2023-01-12T14:57:20Z</time>
      </trkpt>
      <trkpt lat="44.87326" lon="5.07748">
        <ele>362.07</ele>
        <time>2023-01-12T14:57:34Z</time>
      </trkpt>
      <trkpt lat="44.87341" lon="5.07759">
        <ele>362.07</ele>
        <time>2023-01-12T14:57:49Z</time>
      </trkpt>
      <trkpt lat="44.87342" lon="5.07759">
        <ele>362.07</ele>
        <time>2023-01-12T14:57:50Z</time>
      </trkpt>
      <trkpt lat="44.87353" lon="5.07775">
        <ele>360.63</ele>
        <time>2023-01-12T14:58:04Z</time>
      </trkpt>
      <trkpt lat="44.87355" lon="5.0778">
        <ele>360.63</ele>
        <time>2023-01-12T14:58:08Z</time>
      </trkpt>
      <trkpt lat="44.87362" lon="5.07808">
        <ele>360.15</ele>
        <time>2023-01-12T14:58:23Z</time>
      </trkpt>
      <trkpt lat="44.87363" lon="5.07809">
        <ele>360.15</ele>
        <time>2023-01-12T14:58:24Z</time>
      </trkpt>
      <trkpt lat="44.8738" lon="5.07816">
        <ele>360.15</ele>
        <time>2023-01-12T14:58:40Z</time>
      </trkpt>
      <trkpt lat="44.87383" lon="5.07814">
        <ele>360.15</ele>
        <time>2023-01-12T14:58:50Z</time>
      </trkpt>
      <trkpt lat="44.87381" lon="5.07806">
        <ele>360.63</ele>
        <time>2023-01-12T15:02:26Z</time>
      </trkpt>
      <trkpt lat="44.87381" lon="5.07781">
        <ele>359.67</ele>
        <time>2023-01-12T15:02:43Z</time>
      </trkpt>
      <trkpt lat="44.87381" lon="5.07773">
        <ele>359.67</ele>
        <time>2023-01-12T15:02:51Z</time>
      </trkpt>
      <trkpt lat="44.8738" lon="5.07739">
        <ele>359.19</ele>
        <time>2023-01-12T15:03:10Z</time>
      </trkpt>
      <trkpt lat="44.87383" lon="5.07733">
        <ele>359.19</ele>
        <time>2023-01-12T15:03:16Z</time>
      </trkpt>
      <trkpt lat="44.87394" lon="5.07717">
        <ele>359.19</ele>
        <time>2023-01-12T15:03:31Z</time>
      </trkpt>
      <trkpt lat="44.8741" lon="5.07712">
        <ele>361.11</ele>
        <time>2023-01-12T15:03:47Z</time>
      </trkpt>
      <trkpt lat="44.87423" lon="5.07706">
        <ele>361.59</ele>
        <time>2023-01-12T15:04:05Z</time>
      </trkpt>
      <trkpt lat="44.87426" lon="5.07705">
        <ele>361.11</ele>
        <time>2023-01-12T15:04:21Z</time>
      </trkpt>
    </trkseg>
  </trk>
</gpx>